PWSweather.com
Personal Weather Stations
Station Observations
DAVIS2016
WorthingGB

WorthingGB

Lat: 50.8130266, Lon: -0.3832443000000012

Elevation: 34.8

Station Type: davis vantage vue 6250

High Low Average
Temperature 57.1°F13.9°C 49.0°F9.4°C 52.7°F11.5°C
Dew Point 49.6°F9.8°C 45.1°F7.3°C 47.7°F8.7°C
Winds 11.0 mph 17.7 kmh 2.0 mph 3.2 kmh 6.0 mph SW9.7 kmh SW
Wind Gusts 23.0 mph37.0 kmh 7.0 mph11.3 kmh 13.0 mph20.9 kmh
Humidity 89% 75% 83%
Pressure 30.28 in1025.4 mb 30.05 in1017.6 mb -
Precipitation 0.00 in0.0 mm - -
Hour Temp Dew Point Humidity Winds Wind Gusts Pressure Precip Precip Rate Daily Precip Total
12:01 AM 50.7°F10.4°C 45.4°F7.4°C 82% 6.0 mph S9.7 kmh S 11.0 mph17.7 kmh 30.05 in1017.6 mb 0.00 in0.0 mm 0.00 in0.0 mm 0.00 in0.0 mm
12:02 AM 50.7°F10.4°C 45.4°F7.4°C 82% 6.0 mph S9.7 kmh S 11.0 mph17.7 kmh 30.05 in1017.6 mb 0.00 in0.0 mm 0.00 in0.0 mm 0.00 in0.0 mm
12:03 AM 50.7°F10.4°C 45.4°F7.4°C 82% 6.0 mph S9.7 kmh S 13.0 mph20.9 kmh 30.05 in1017.6 mb 0.00 in0.0 mm 0.00 in0.0 mm 0.00 in0.0 mm
12:05 AM 50.8°F10.4°C 45.5°F7.5°C 82% 6.0 mph S9.7 kmh S 13.0 mph20.9 kmh 30.06 in1017.9 mb 0.00 in0.0 mm 0.00 in0.0 mm 0.00 in0.0 mm
12:06 AM 50.8°F10.4°C 45.5°F7.5°C 82% 6.0 mph S9.7 kmh S 15.0 mph24.1 kmh 30.06 in1017.9 mb 0.00 in0.0 mm 0.00 in0.0 mm 0.00 in0.0 mm
12:07 AM 50.9°F10.5°C 45.6°F7.6°C 82% 6.0 mph S9.7 kmh S 15.0 mph24.1 kmh 30.06 in1017.9 mb 0.00 in0.0 mm 0.00 in0.0 mm 0.00 in0.0 mm
12:09 AM 50.9°F10.5°C 45.6°F7.6°C 82% 6.0 mph S9.7 kmh S 15.0 mph24.1 kmh 30.06 in1017.9 mb 0.00 in0.0 mm 0.00 in0.0 mm 0.00 in0.0 mm
12:10 AM 51.0°F10.6°C 45.7°F7.6°C 82% 6.0 mph S9.7 kmh S 15.0 mph24.1 kmh 30.06 in1017.9 mb 0.00 in0.0 mm 0.00 in0.0 mm 0.00 in0.0 mm
12:11 AM 51.0°F10.6°C 45.7°F7.6°C 82% 6.0 mph S9.7 kmh S 15.0 mph24.1 kmh 30.06 in1017.9 mb 0.00 in0.0 mm 0.00 in0.0 mm 0.00 in0.0 mm
12:12 AM 51.0°F10.6°C 45.7°F7.6°C 82% 6.0 mph S9.7 kmh S 15.0 mph24.1 kmh 30.06 in1017.9 mb 0.00 in0.0 mm 0.00 in0.0 mm 0.00 in0.0 mm
12:13 AM 51.0°F10.6°C 45.7°F7.6°C 82% 6.0 mph SSW9.7 kmh SSW 15.0 mph24.1 kmh 30.06 in1017.9 mb 0.00 in0.0 mm 0.00 in0.0 mm 0.00 in0.0 mm
12:15 AM 51.1°F10.6°C 45.8°F7.7°C 82% 7.0 mph SSW11.3 kmh SSW 15.0 mph24.1 kmh 30.06 in1017.9 mb 0.00 in0.0 mm 0.00 in0.0 mm 0.00 in0.0 mm
12:16 AM 51.1°F10.6°C 45.8°F7.7°C 82% 6.0 mph SSW9.7 kmh SSW 13.0 mph20.9 kmh 30.06 in1017.9 mb 0.00 in0.0 mm 0.00 in0.0 mm 0.00 in0.0 mm
12:18 AM 51.0°F10.6°C 45.7°F7.6°C 82% 6.0 mph SSW9.7 kmh SSW 13.0 mph20.9 kmh 30.06 in1017.9 mb 0.00 in0.0 mm 0.00 in0.0 mm 0.00 in0.0 mm
12:19 AM 51.0°F10.6°C 45.7°F7.6°C 82% 7.0 mph SSW11.3 kmh SSW 13.0 mph20.9 kmh 30.06 in1017.9 mb 0.00 in0.0 mm 0.00 in0.0 mm 0.00 in0.0 mm
12:21 AM 51.0°F10.6°C 45.7°F7.6°C 82% 7.0 mph SSW11.3 kmh SSW 13.0 mph20.9 kmh 30.06 in1017.9 mb 0.00 in0.0 mm 0.00 in0.0 mm 0.00 in0.0 mm
12:22 AM 51.0°F10.6°C 45.7°F7.6°C 82% 7.0 mph SSW11.3 kmh SSW 13.0 mph20.9 kmh 30.07 in1018.3 mb 0.00 in0.0 mm 0.00 in0.0 mm 0.00 in0.0 mm
12:24 AM 51.0°F10.6°C 45.7°F7.6°C 82% 7.0 mph SSW11.3 kmh SSW 14.0 mph22.5 kmh 30.06 in1017.9 mb 0.00 in0.0 mm 0.00 in0.0 mm 0.00 in0.0 mm
12:25 AM 51.0°F10.6°C 45.7°F7.6°C 82% 7.0 mph SSW11.3 kmh SSW 19.0 mph30.6 kmh 30.06 in1017.9 mb 0.00 in0.0 mm 0.00 in0.0 mm 0.00 in0.0 mm
12:27 AM 50.9°F10.5°C 45.6°F7.6°C 82% 8.0 mph SSW12.9 kmh SSW 19.0 mph30.6 kmh 30.06 in1017.9 mb 0.00 in0.0 mm 0.00 in0.0 mm 0.00 in0.0 mm
12:28 AM 50.9°F10.5°C 45.6°F7.6°C 82% 8.0 mph SSW12.9 kmh SSW 19.0 mph30.6 kmh 30.06 in1017.9 mb 0.00 in0.0 mm 0.00 in0.0 mm 0.00 in0.0 mm
12:29 AM 50.9°F10.5°C 45.6°F7.6°C 82% 8.0 mph SSW12.9 kmh SSW 19.0 mph30.6 kmh 30.06 in1017.9 mb 0.00 in0.0 mm 0.00 in0.0 mm 0.00 in0.0 mm
12:31 AM 50.9°F10.5°C 45.9°F7.7°C 83% 8.0 mph SSW12.9 kmh SSW 19.0 mph30.6 kmh 30.06 in1017.9 mb 0.00 in0.0 mm 0.00 in0.0 mm 0.00 in0.0 mm
12:32 AM 50.9°F10.5°C 45.9°F7.7°C 83% 8.0 mph SSW12.9 kmh SSW 19.0 mph30.6 kmh 30.06 in1017.9 mb 0.00 in0.0 mm 0.00 in0.0 mm 0.00 in0.0 mm
12:34 AM 50.8°F10.4°C 45.8°F7.7°C 83% 8.0 mph SSW12.9 kmh SSW 19.0 mph30.6 kmh 30.06 in1017.9 mb 0.00 in0.0 mm 0.00 in0.0 mm 0.00 in0.0 mm
12:35 AM 50.8°F10.4°C 45.8°F7.7°C 83% 8.0 mph SSW12.9 kmh SSW 14.0 mph22.5 kmh 30.06 in1017.9 mb 0.00 in0.0 mm 0.00 in0.0 mm 0.00 in0.0 mm
12:36 AM 50.8°F10.4°C 45.8°F7.7°C 83% 8.0 mph SSW12.9 kmh SSW 14.0 mph22.5 kmh 30.06 in1017.9 mb 0.00 in0.0 mm 0.00 in0.0 mm 0.00 in0.0 mm
12:37 AM 50.8°F10.4°C 45.8°F7.7°C 83% 8.0 mph SSW12.9 kmh SSW 14.0 mph22.5 kmh 30.06 in1017.9 mb 0.00 in0.0 mm 0.00 in0.0 mm 0.00 in0.0 mm
12:39 AM 50.8°F10.4°C 45.8°F7.7°C 83% 8.0 mph SSW12.9 kmh SSW 14.0 mph22.5 kmh 30.06 in1017.9 mb 0.00 in0.0 mm 0.00 in0.0 mm 0.00 in0.0 mm
12:40 AM 50.8°F10.4°C 45.8°F7.7°C 83% 8.0 mph SSW12.9 kmh SSW 14.0 mph22.5 kmh 30.06 in1017.9 mb 0.00 in0.0 mm 0.00 in0.0 mm 0.00 in0.0 mm
12:41 AM 50.8°F10.4°C 45.8°F7.7°C 83% 7.0 mph SSW11.3 kmh SSW 14.0 mph22.5 kmh 30.06 in1017.9 mb 0.00 in0.0 mm 0.00 in0.0 mm 0.00 in0.0 mm
12:43 AM 50.7°F10.4°C 45.7°F7.6°C 83% 7.0 mph SSW11.3 kmh SSW 14.0 mph22.5 kmh 30.06 in1017.9 mb 0.00 in0.0 mm 0.00 in0.0 mm 0.00 in0.0 mm
12:44 AM 50.7°F10.4°C 45.7°F7.6°C 83% 7.0 mph SSW11.3 kmh SSW 13.0 mph20.9 kmh 30.06 in1017.9 mb 0.00 in0.0 mm 0.00 in0.0 mm 0.00 in0.0 mm
12:45 AM 50.7°F10.4°C 45.7°F7.6°C 83% 7.0 mph SSW11.3 kmh SSW 13.0 mph20.9 kmh 30.06 in1017.9 mb 0.00 in0.0 mm 0.00 in0.0 mm 0.00 in0.0 mm
12:46 AM 50.7°F10.4°C 45.7°F7.6°C 83% 7.0 mph SSW11.3 kmh SSW 13.0 mph20.9 kmh 30.06 in1017.9 mb 0.00 in0.0 mm 0.00 in0.0 mm 0.00 in0.0 mm
12:48 AM 50.7°F10.4°C 45.7°F7.6°C 83% 7.0 mph SSW11.3 kmh SSW 15.0 mph24.1 kmh 30.05 in1017.6 mb 0.00 in0.0 mm 0.00 in0.0 mm 0.00 in0.0 mm
12:49 AM 50.6°F10.3°C 45.6°F7.6°C 83% 7.0 mph SSW11.3 kmh SSW 16.0 mph25.7 kmh 30.05 in1017.6 mb 0.00 in0.0 mm 0.00 in0.0 mm 0.00 in0.0 mm
12:51 AM 50.6°F10.3°C 45.6°F7.6°C 83% 8.0 mph SSW12.9 kmh SSW 16.0 mph25.7 kmh 30.05 in1017.6 mb 0.00 in0.0 mm 0.00 in0.0 mm 0.00 in0.0 mm
12:52 AM 50.6°F10.3°C 45.6°F7.6°C 83% 8.0 mph SSW12.9 kmh SSW 16.0 mph25.7 kmh 30.05 in1017.6 mb 0.00 in0.0 mm 0.00 in0.0 mm 0.00 in0.0 mm
12:53 AM 50.6°F10.3°C 45.9°F7.7°C 84% 8.0 mph SSW12.9 kmh SSW 16.0 mph25.7 kmh 30.05 in1017.6 mb 0.00 in0.0 mm 0.00 in0.0 mm 0.00 in0.0 mm
12:55 AM 50.6°F10.3°C 45.9°F7.7°C 84% 8.0 mph SSW12.9 kmh SSW 16.0 mph25.7 kmh 30.05 in1017.6 mb 0.00 in0.0 mm 0.00 in0.0 mm 0.00 in0.0 mm
12:56 AM 50.5°F10.3°C 45.8°F7.7°C 84% 8.0 mph SSW12.9 kmh SSW 16.0 mph25.7 kmh 30.05 in1017.6 mb 0.00 in0.0 mm 0.00 in0.0 mm 0.00 in0.0 mm
12:57 AM 50.5°F10.3°C 45.8°F7.7°C 84% 8.0 mph SSW12.9 kmh SSW 16.0 mph25.7 kmh 30.05 in1017.6 mb 0.00 in0.0 mm 0.00 in0.0 mm 0.00 in0.0 mm
12:58 AM 50.5°F10.3°C 45.8°F7.7°C 84% 8.0 mph SSW12.9 kmh SSW 16.0 mph25.7 kmh 30.05 in1017.6 mb 0.00 in0.0 mm 0.00 in0.0 mm 0.00 in0.0 mm
01:00 AM 50.5°F10.3°C 45.8°F7.7°C 84% 8.0 mph SSW12.9 kmh SSW 14.0 mph22.5 kmh 30.05 in1017.6 mb 0.00 in0.0 mm 0.00 in0.0 mm 0.00 in0.0 mm
01:01 AM 50.5°F10.3°C 45.8°F7.7°C 84% 8.0 mph SSW12.9 kmh SSW 16.0 mph25.7 kmh 30.06 in1017.9 mb 0.00 in0.0 mm 0.00 in0.0 mm 0.00 in0.0 mm
01:03 AM 50.5°F10.3°C 45.8°F7.7°C 84% 8.0 mph SSW12.9 kmh SSW 16.0 mph25.7 kmh 30.05 in1017.6 mb 0.00 in0.0 mm 0.00 in0.0 mm 0.00 in0.0 mm
01:04 AM 50.5°F10.3°C 45.8°F7.7°C 84% 8.0 mph SSW12.9 kmh SSW 16.0 mph25.7 kmh 30.05 in1017.6 mb 0.00 in0.0 mm 0.00 in0.0 mm 0.00 in0.0 mm
01:05 AM 50.4°F10.2°C 45.7°F7.6°C 84% 8.0 mph SSW12.9 kmh SSW 16.0 mph25.7 kmh 30.05 in1017.6 mb 0.00 in0.0 mm 0.00 in0.0 mm 0.00 in0.0 mm
01:06 AM 50.4°F10.2°C 45.7°F7.6°C 84% 8.0 mph SSW12.9 kmh SSW 16.0 mph25.7 kmh 30.05 in1017.6 mb 0.00 in0.0 mm 0.00 in0.0 mm 0.00 in0.0 mm
01:08 AM 50.4°F10.2°C 45.7°F7.6°C 84% 8.0 mph SSW12.9 kmh SSW 16.0 mph25.7 kmh 30.06 in1017.9 mb 0.00 in0.0 mm 0.00 in0.0 mm 0.00 in0.0 mm
01:09 AM 50.4°F10.2°C 45.7°F7.6°C 84% 8.0 mph SSW12.9 kmh SSW 16.0 mph25.7 kmh 30.06 in1017.9 mb 0.00 in0.0 mm 0.00 in0.0 mm 0.00 in0.0 mm
01:11 AM 50.4°F10.2°C 45.7°F7.6°C 84% 7.0 mph SSW11.3 kmh SSW 15.0 mph24.1 kmh 30.06 in1017.9 mb 0.00 in0.0 mm 0.00 in0.0 mm 0.00 in0.0 mm
01:12 AM 50.4°F10.2°C 45.7°F7.6°C 84% 6.0 mph SSW9.7 kmh SSW 14.0 mph22.5 kmh 30.06 in1017.9 mb 0.00 in0.0 mm 0.00 in0.0 mm 0.00 in0.0 mm
01:14 AM 50.3°F10.2°C 45.6°F7.6°C 84% 6.0 mph SW9.7 kmh SW 14.0 mph22.5 kmh 30.06 in1017.9 mb 0.00 in0.0 mm 0.00 in0.0 mm 0.00 in0.0 mm
01:15 AM 50.3°F10.2°C 46.0°F7.8°C 85% 6.0 mph SW9.7 kmh SW 14.0 mph22.5 kmh 30.06 in1017.9 mb 0.00 in0.0 mm 0.00 in0.0 mm 0.00 in0.0 mm
01:16 AM 50.3°F10.2°C 46.0°F7.8°C 85% 6.0 mph SW9.7 kmh SW 14.0 mph22.5 kmh 30.06 in1017.9 mb 0.00 in0.0 mm 0.00 in0.0 mm 0.00 in0.0 mm
01:18 AM 50.3°F10.2°C 45.6°F7.6°C 84% 6.0 mph SW9.7 kmh SW 14.0 mph22.5 kmh 30.06 in1017.9 mb 0.00 in0.0 mm 0.00 in0.0 mm 0.00 in0.0 mm
01:19 AM 50.3°F10.2°C 45.6°F7.6°C 84% 6.0 mph SW9.7 kmh SW 14.0 mph22.5 kmh 30.06 in1017.9 mb 0.00 in0.0 mm 0.00 in0.0 mm 0.00 in0.0 mm
01:21 AM 50.3°F10.2°C 45.6°F7.6°C 84% 7.0 mph SW11.3 kmh SW 14.0 mph22.5 kmh 30.06 in1017.9 mb 0.00 in0.0 mm 0.00 in0.0 mm 0.00 in0.0 mm
01:22 AM 50.4°F10.2°C 45.7°F7.6°C 84% 7.0 mph SW11.3 kmh SW 14.0 mph22.5 kmh 30.06 in1017.9 mb 0.00 in0.0 mm 0.00 in0.0 mm 0.00 in0.0 mm
01:23 AM 50.4°F10.2°C 45.7°F7.6°C 84% 7.0 mph SW11.3 kmh SW 14.0 mph22.5 kmh 30.06 in1017.9 mb 0.00 in0.0 mm 0.00 in0.0 mm 0.00 in0.0 mm
01:24 AM 50.4°F10.2°C 45.7°F7.6°C 84% 7.0 mph SW11.3 kmh SW 14.0 mph22.5 kmh 30.06 in1017.9 mb 0.00 in0.0 mm 0.00 in0.0 mm 0.00 in0.0 mm
01:26 AM 50.4°F10.2°C 45.7°F7.6°C 84% 8.0 mph SW12.9 kmh SW 15.0 mph24.1 kmh 30.06 in1017.9 mb 0.00 in0.0 mm 0.00 in0.0 mm 0.00 in0.0 mm
01:27 AM 50.4°F10.2°C 45.7°F7.6°C 84% 8.0 mph SW12.9 kmh SW 15.0 mph24.1 kmh 30.06 in1017.9 mb 0.00 in0.0 mm 0.00 in0.0 mm 0.00 in0.0 mm
01:29 AM 50.4°F10.2°C 45.7°F7.6°C 84% 8.0 mph SW12.9 kmh SW 15.0 mph24.1 kmh 30.06 in1017.9 mb 0.00 in0.0 mm 0.00 in0.0 mm 0.00 in0.0 mm
01:30 AM 50.3°F10.2°C 45.6°F7.6°C 84% 8.0 mph SW12.9 kmh SW 15.0 mph24.1 kmh 30.06 in1017.9 mb 0.00 in0.0 mm 0.00 in0.0 mm 0.00 in0.0 mm
01:31 AM 50.3°F10.2°C 45.6°F7.6°C 84% 8.0 mph SW12.9 kmh SW 15.0 mph24.1 kmh 30.06 in1017.9 mb 0.00 in0.0 mm 0.00 in0.0 mm 0.00 in0.0 mm
01:33 AM 50.3°F10.2°C 45.6°F7.6°C 84% 8.0 mph SW12.9 kmh SW 15.0 mph24.1 kmh 30.06 in1017.9 mb 0.00 in0.0 mm 0.00 in0.0 mm 0.00 in0.0 mm
01:34 AM 50.3°F10.2°C 45.6°F7.6°C 84% 8.0 mph SW12.9 kmh SW 15.0 mph24.1 kmh 30.06 in1017.9 mb 0.00 in0.0 mm 0.00 in0.0 mm 0.00 in0.0 mm
01:35 AM 50.3°F10.2°C 45.6°F7.6°C 84% 8.0 mph SW12.9 kmh SW 15.0 mph24.1 kmh 30.06 in1017.9 mb 0.00 in0.0 mm 0.00 in0.0 mm 0.00 in0.0 mm
01:36 AM 50.3°F10.2°C 45.6°F7.6°C 84% 7.0 mph SW11.3 kmh SW 15.0 mph24.1 kmh 30.06 in1017.9 mb 0.00 in0.0 mm 0.00 in0.0 mm 0.00 in0.0 mm
01:38 AM 50.3°F10.2°C 45.6°F7.6°C 84% 7.0 mph SW11.3 kmh SW 15.0 mph24.1 kmh 30.06 in1017.9 mb 0.00 in0.0 mm 0.00 in0.0 mm 0.00 in0.0 mm
01:39 AM 50.3°F10.2°C 45.6°F7.6°C 84% 7.0 mph SW11.3 kmh SW 15.0 mph24.1 kmh 30.06 in1017.9 mb 0.00 in0.0 mm 0.00 in0.0 mm 0.00 in0.0 mm
01:40 AM 50.3°F10.2°C 45.6°F7.6°C 84% 7.0 mph SW11.3 kmh SW 15.0 mph24.1 kmh 30.06 in1017.9 mb 0.00 in0.0 mm 0.00 in0.0 mm 0.00 in0.0 mm
01:41 AM 50.3°F10.2°C 45.6°F7.6°C 84% 6.0 mph SW9.7 kmh SW 15.0 mph24.1 kmh 30.06 in1017.9 mb 0.00 in0.0 mm 0.00 in0.0 mm 0.00 in0.0 mm
01:43 AM 50.3°F10.2°C 45.6°F7.6°C 84% 6.0 mph SSW9.7 kmh SSW 15.0 mph24.1 kmh 30.06 in1017.9 mb 0.00 in0.0 mm 0.00 in0.0 mm 0.00 in0.0 mm
01:44 AM 50.3°F10.2°C 45.6°F7.6°C 84% 6.0 mph SSW9.7 kmh SSW 14.0 mph22.5 kmh 30.06 in1017.9 mb 0.00 in0.0 mm 0.00 in0.0 mm 0.00 in0.0 mm
01:46 AM 50.3°F10.2°C 45.6°F7.6°C 84% 6.0 mph SSW9.7 kmh SSW 14.0 mph22.5 kmh 30.06 in1017.9 mb 0.00 in0.0 mm 0.00 in0.0 mm 0.00 in0.0 mm
01:47 AM 50.3°F10.2°C 45.6°F7.6°C 84% 6.0 mph SSW9.7 kmh SSW 14.0 mph22.5 kmh 30.06 in1017.9 mb 0.00 in0.0 mm 0.00 in0.0 mm 0.00 in0.0 mm
01:49 AM 50.3°F10.2°C 45.6°F7.6°C 84% 6.0 mph SSW9.7 kmh SSW 14.0 mph22.5 kmh 30.06 in1017.9 mb 0.00 in0.0 mm 0.00 in0.0 mm 0.00 in0.0 mm
01:50 AM 50.2°F10.1°C 45.6°F7.6°C 84% 6.0 mph SSW9.7 kmh SSW 14.0 mph22.5 kmh 30.06 in1017.9 mb 0.00 in0.0 mm 0.00 in0.0 mm 0.00 in0.0 mm
01:51 AM 50.2°F10.1°C 45.6°F7.6°C 84% 6.0 mph SSW9.7 kmh SSW 14.0 mph22.5 kmh 30.06 in1017.9 mb 0.00 in0.0 mm 0.00 in0.0 mm 0.00 in0.0 mm
01:53 AM 50.2°F10.1°C 45.6°F7.6°C 84% 6.0 mph SSW9.7 kmh SSW 14.0 mph22.5 kmh 30.06 in1017.9 mb 0.00 in0.0 mm 0.00 in0.0 mm 0.00 in0.0 mm
01:54 AM 50.2°F10.1°C 45.6°F7.6°C 84% 6.0 mph SSW9.7 kmh SSW 13.0 mph20.9 kmh 30.06 in1017.9 mb 0.00 in0.0 mm 0.00 in0.0 mm 0.00 in0.0 mm
01:55 AM 50.2°F10.1°C 45.6°F7.6°C 84% 5.0 mph SSW8.0 kmh SSW 14.0 mph22.5 kmh 30.06 in1017.9 mb 0.00 in0.0 mm 0.00 in0.0 mm 0.00 in0.0 mm
01:56 AM 50.2°F10.1°C 45.6°F7.6°C 84% 6.0 mph SSW9.7 kmh SSW 14.0 mph22.5 kmh 30.06 in1017.9 mb 0.00 in0.0 mm 0.00 in0.0 mm 0.00 in0.0 mm
01:57 AM 50.2°F10.1°C 45.6°F7.6°C 84% 6.0 mph SSW9.7 kmh SSW 14.0 mph22.5 kmh 30.06 in1017.9 mb 0.00 in0.0 mm 0.00 in0.0 mm 0.00 in0.0 mm
01:58 AM 50.2°F10.1°C 45.6°F7.6°C 84% 6.0 mph SSW9.7 kmh SSW 14.0 mph22.5 kmh 30.06 in1017.9 mb 0.00 in0.0 mm 0.00 in0.0 mm 0.00 in0.0 mm
02:00 AM 50.2°F10.1°C 45.6°F7.6°C 84% 6.0 mph SSW9.7 kmh SSW 14.0 mph22.5 kmh 30.06 in1017.9 mb 0.00 in0.0 mm 0.00 in0.0 mm 0.00 in0.0 mm
02:01 AM 50.2°F10.1°C 45.6°F7.6°C 84% 6.0 mph SSW9.7 kmh SSW 14.0 mph22.5 kmh 30.07 in1018.3 mb 0.00 in0.0 mm 0.00 in0.0 mm 0.00 in0.0 mm
02:03 AM 50.1°F10.1°C 45.5°F7.5°C 84% 6.0 mph SSW9.7 kmh SSW 14.0 mph22.5 kmh 30.06 in1017.9 mb 0.00 in0.0 mm 0.00 in0.0 mm 0.00 in0.0 mm
02:04 AM 50.1°F10.1°C 45.5°F7.5°C 84% 6.0 mph SSW9.7 kmh SSW 14.0 mph22.5 kmh 30.06 in1017.9 mb 0.00 in0.0 mm 0.00 in0.0 mm 0.00 in0.0 mm
02:05 AM 50.1°F10.1°C 45.5°F7.5°C 84% 6.0 mph SSW9.7 kmh SSW 14.0 mph22.5 kmh 30.06 in1017.9 mb 0.00 in0.0 mm 0.00 in0.0 mm 0.00 in0.0 mm
02:07 AM 50.1°F10.1°C 45.5°F7.5°C 84% 6.0 mph SSW9.7 kmh SSW 14.0 mph22.5 kmh 30.06 in1017.9 mb 0.00 in0.0 mm 0.00 in0.0 mm 0.00 in0.0 mm
02:08 AM 50.1°F10.1°C 45.5°F7.5°C 84% 6.0 mph SSW9.7 kmh SSW 12.0 mph19.3 kmh 30.06 in1017.9 mb 0.00 in0.0 mm 0.00 in0.0 mm 0.00 in0.0 mm
02:09 AM 50.1°F10.1°C 45.5°F7.5°C 84% 6.0 mph SSW9.7 kmh SSW 12.0 mph19.3 kmh 30.06 in1017.9 mb 0.00 in0.0 mm 0.00 in0.0 mm 0.00 in0.0 mm
02:10 AM 50.1°F10.1°C 45.5°F7.5°C 84% 6.0 mph SSW9.7 kmh SSW 12.0 mph19.3 kmh 30.06 in1017.9 mb 0.00 in0.0 mm 0.00 in0.0 mm 0.00 in0.0 mm
02:11 AM 50.1°F10.1°C 45.5°F7.5°C 84% 6.0 mph SSW9.7 kmh SSW 12.0 mph19.3 kmh 30.06 in1017.9 mb 0.00 in0.0 mm 0.00 in0.0 mm 0.00 in0.0 mm
02:12 AM 50.0°F10.0°C 45.4°F7.4°C 84% 6.0 mph SSW9.7 kmh SSW 12.0 mph19.3 kmh 30.07 in1018.3 mb 0.00 in0.0 mm 0.00 in0.0 mm 0.00 in0.0 mm
02:13 AM 50.0°F10.0°C 45.4°F7.4°C 84% 6.0 mph SSW9.7 kmh SSW 12.0 mph19.3 kmh 30.06 in1017.9 mb 0.00 in0.0 mm 0.00 in0.0 mm 0.00 in0.0 mm
02:15 AM 50.0°F10.0°C 45.4°F7.4°C 84% 6.0 mph SSW9.7 kmh SSW 12.0 mph19.3 kmh 30.06 in1017.9 mb 0.00 in0.0 mm 0.00 in0.0 mm 0.00 in0.0 mm
02:16 AM 50.0°F10.0°C 45.4°F7.4°C 84% 6.0 mph SSW9.7 kmh SSW 12.0 mph19.3 kmh 30.06 in1017.9 mb 0.00 in0.0 mm 0.00 in0.0 mm 0.00 in0.0 mm
02:18 AM 49.9°F9.9°C 45.3°F7.4°C 84% 7.0 mph SSW11.3 kmh SSW 12.0 mph19.3 kmh 30.06 in1017.9 mb 0.00 in0.0 mm 0.00 in0.0 mm 0.00 in0.0 mm
02:20 AM 49.9°F9.9°C 45.6°F7.6°C 85% 6.0 mph SSW9.7 kmh SSW 12.0 mph19.3 kmh 30.06 in1017.9 mb 0.00 in0.0 mm 0.00 in0.0 mm 0.00 in0.0 mm
02:21 AM 49.9°F9.9°C 45.6°F7.6°C 85% 6.0 mph SSW9.7 kmh SSW 12.0 mph19.3 kmh 30.06 in1017.9 mb 0.00 in0.0 mm 0.00 in0.0 mm 0.00 in0.0 mm
02:23 AM 49.8°F9.9°C 45.5°F7.5°C 85% 7.0 mph SW11.3 kmh SW 12.0 mph19.3 kmh 30.06 in1017.9 mb 0.00 in0.0 mm 0.00 in0.0 mm 0.00 in0.0 mm
02:24 AM 49.8°F9.9°C 45.5°F7.5°C 85% 7.0 mph SW11.3 kmh SW 12.0 mph19.3 kmh 30.06 in1017.9 mb 0.00 in0.0 mm 0.00 in0.0 mm 0.00 in0.0 mm
02:25 AM 49.8°F9.9°C 45.5°F7.5°C 85% 7.0 mph SW11.3 kmh SW 12.0 mph19.3 kmh 30.06 in1017.9 mb 0.00 in0.0 mm 0.00 in0.0 mm 0.00 in0.0 mm
02:27 AM 49.8°F9.9°C 45.2°F7.3°C 84% 7.0 mph SSW11.3 kmh SSW 14.0 mph22.5 kmh 30.06 in1017.9 mb 0.00 in0.0 mm 0.00 in0.0 mm 0.00 in0.0 mm
02:28 AM 49.8°F9.9°C 45.2°F7.3°C 84% 7.0 mph SSW11.3 kmh SSW 14.0 mph22.5 kmh 30.06 in1017.9 mb 0.00 in0.0 mm 0.00 in0.0 mm 0.00 in0.0 mm
02:30 AM 49.8°F9.9°C 45.2°F7.3°C 84% 8.0 mph SSW12.9 kmh SSW 14.0 mph22.5 kmh 30.06 in1017.9 mb 0.00 in0.0 mm 0.00 in0.0 mm 0.00 in0.0 mm
02:31 AM 49.8°F9.9°C 45.2°F7.3°C 84% 7.0 mph SSW11.3 kmh SSW 14.0 mph22.5 kmh 30.06 in1017.9 mb 0.00 in0.0 mm 0.00 in0.0 mm 0.00 in0.0 mm
02:32 AM 49.8°F9.9°C 45.2°F7.3°C 84% 7.0 mph SSW11.3 kmh SSW 14.0 mph22.5 kmh 30.06 in1017.9 mb 0.00 in0.0 mm 0.00 in0.0 mm 0.00 in0.0 mm
02:34 AM 49.8°F9.9°C 45.2°F7.3°C 84% 7.0 mph SSW11.3 kmh SSW 16.0 mph25.7 kmh 30.06 in1017.9 mb 0.00 in0.0 mm 0.00 in0.0 mm 0.00 in0.0 mm
02:35 AM 49.9°F9.9°C 45.3°F7.4°C 84% 8.0 mph SSW12.9 kmh SSW 16.0 mph25.7 kmh 30.06 in1017.9 mb 0.00 in0.0 mm 0.00 in0.0 mm 0.00 in0.0 mm
02:36 AM 49.9°F9.9°C 45.3°F7.4°C 84% 8.0 mph SSW12.9 kmh SSW 16.0 mph25.7 kmh 30.06 in1017.9 mb 0.00 in0.0 mm 0.00 in0.0 mm 0.00 in0.0 mm
02:38 AM 49.9°F9.9°C 45.3°F7.4°C 84% 8.0 mph SSW12.9 kmh SSW 16.0 mph25.7 kmh 30.06 in1017.9 mb 0.00 in0.0 mm 0.00 in0.0 mm 0.00 in0.0 mm
02:39 AM 49.9°F9.9°C 45.3°F7.4°C 84% 8.0 mph SSW12.9 kmh SSW 16.0 mph25.7 kmh 30.06 in1017.9 mb 0.00 in0.0 mm 0.00 in0.0 mm 0.00 in0.0 mm
02:40 AM 49.9°F9.9°C 45.3°F7.4°C 84% 8.0 mph SSW12.9 kmh SSW 16.0 mph25.7 kmh 30.06 in1017.9 mb 0.00 in0.0 mm 0.00 in0.0 mm 0.00 in0.0 mm
02:41 AM 49.8°F9.9°C 45.2°F7.3°C 84% 8.0 mph SSW12.9 kmh SSW 16.0 mph25.7 kmh 30.06 in1017.9 mb 0.00 in0.0 mm 0.00 in0.0 mm 0.00 in0.0 mm
02:42 AM 49.8°F9.9°C 45.2°F7.3°C 84% 8.0 mph SSW12.9 kmh SSW 16.0 mph25.7 kmh 30.06 in1017.9 mb 0.00 in0.0 mm 0.00 in0.0 mm 0.00 in0.0 mm
02:43 AM 49.8°F9.9°C 45.2°F7.3°C 84% 8.0 mph SSW12.9 kmh SSW 16.0 mph25.7 kmh 30.06 in1017.9 mb 0.00 in0.0 mm 0.00 in0.0 mm 0.00 in0.0 mm
02:45 AM 49.7°F9.8°C 45.4°F7.4°C 85% 7.0 mph SSW11.3 kmh SSW 14.0 mph22.5 kmh 30.06 in1017.9 mb 0.00 in0.0 mm 0.00 in0.0 mm 0.00 in0.0 mm
02:46 AM 49.7°F9.8°C 45.4°F7.4°C 85% 7.0 mph SSW11.3 kmh SSW 13.0 mph20.9 kmh 30.06 in1017.9 mb 0.00 in0.0 mm 0.00 in0.0 mm 0.00 in0.0 mm
02:47 AM 49.7°F9.8°C 45.4°F7.4°C 85% 6.0 mph SSW9.7 kmh SSW 13.0 mph20.9 kmh 30.06 in1017.9 mb 0.00 in0.0 mm 0.00 in0.0 mm 0.00 in0.0 mm
02:48 AM 49.7°F9.8°C 45.4°F7.4°C 85% 6.0 mph SSW9.7 kmh SSW 13.0 mph20.9 kmh 30.06 in1017.9 mb 0.00 in0.0 mm 0.00 in0.0 mm 0.00 in0.0 mm
02:49 AM 49.6°F9.8°C 45.3°F7.4°C 85% 6.0 mph SSW9.7 kmh SSW 12.0 mph19.3 kmh 30.06 in1017.9 mb 0.00 in0.0 mm 0.00 in0.0 mm 0.00 in0.0 mm
02:51 AM 49.6°F9.8°C 45.3°F7.4°C 85% 5.0 mph SW8.0 kmh SW 11.0 mph17.7 kmh 30.06 in1017.9 mb 0.00 in0.0 mm 0.00 in0.0 mm 0.00 in0.0 mm
02:52 AM 49.6°F9.8°C 45.6°F7.6°C 86% 5.0 mph SW8.0 kmh SW 11.0 mph17.7 kmh 30.06 in1017.9 mb 0.00 in0.0 mm 0.00 in0.0 mm 0.00 in0.0 mm
02:54 AM 49.5°F9.7°C 45.5°F7.5°C 86% 5.0 mph SW8.0 kmh SW 11.0 mph17.7 kmh 30.06 in1017.9 mb 0.00 in0.0 mm 0.00 in0.0 mm 0.00 in0.0 mm
02:55 AM 49.5°F9.7°C 45.5°F7.5°C 86% 5.0 mph SW8.0 kmh SW 11.0 mph17.7 kmh 30.06 in1017.9 mb 0.00 in0.0 mm 0.00 in0.0 mm 0.00 in0.0 mm
02:56 AM 49.5°F9.7°C 45.5°F7.5°C 86% 5.0 mph SW8.0 kmh SW 11.0 mph17.7 kmh 30.06 in1017.9 mb 0.00 in0.0 mm 0.00 in0.0 mm 0.00 in0.0 mm
02:58 AM 49.5°F9.7°C 45.5°F7.5°C 86% 6.0 mph SW9.7 kmh SW 13.0 mph20.9 kmh 30.06 in1017.9 mb 0.00 in0.0 mm 0.00 in0.0 mm 0.00 in0.0 mm
02:59 AM 49.5°F9.7°C 45.5°F7.5°C 86% 6.0 mph SW9.7 kmh SW 13.0 mph20.9 kmh 30.06 in1017.9 mb 0.00 in0.0 mm 0.00 in0.0 mm 0.00 in0.0 mm
03:00 AM 49.5°F9.7°C 45.5°F7.5°C 86% 6.0 mph SW9.7 kmh SW 13.0 mph20.9 kmh 30.06 in1017.9 mb 0.00 in0.0 mm 0.00 in0.0 mm 0.00 in0.0 mm
03:01 AM 49.5°F9.7°C 45.5°F7.5°C 86% 6.0 mph SW9.7 kmh SW 13.0 mph20.9 kmh 30.06 in1017.9 mb 0.00 in0.0 mm 0.00 in0.0 mm 0.00 in0.0 mm
03:03 AM 49.5°F9.7°C 45.5°F7.5°C 86% 6.0 mph SW9.7 kmh SW 13.0 mph20.9 kmh 30.06 in1017.9 mb 0.00 in0.0 mm 0.00 in0.0 mm 0.00 in0.0 mm
03:05 AM 49.4°F9.7°C 45.4°F7.4°C 86% 6.0 mph SW9.7 kmh SW 13.0 mph20.9 kmh 30.06 in1017.9 mb 0.00 in0.0 mm 0.00 in0.0 mm 0.00 in0.0 mm
03:06 AM 49.4°F9.7°C 45.4°F7.4°C 86% 6.0 mph SW9.7 kmh SW 13.0 mph20.9 kmh 30.06 in1017.9 mb 0.00 in0.0 mm 0.00 in0.0 mm 0.00 in0.0 mm
03:08 AM 49.4°F9.7°C 45.4°F7.4°C 86% 6.0 mph SW9.7 kmh SW 12.0 mph19.3 kmh 30.06 in1017.9 mb 0.00 in0.0 mm 0.00 in0.0 mm 0.00 in0.0 mm
03:10 AM 49.4°F9.7°C 45.4°F7.4°C 86% 5.0 mph SW8.0 kmh SW 12.0 mph19.3 kmh 30.06 in1017.9 mb 0.00 in0.0 mm 0.00 in0.0 mm 0.00 in0.0 mm
03:11 AM 49.4°F9.7°C 45.4°F7.4°C 86% 5.0 mph SW8.0 kmh SW 12.0 mph19.3 kmh 30.05 in1017.6 mb 0.00 in0.0 mm 0.00 in0.0 mm 0.00 in0.0 mm
03:13 AM 49.3°F9.6°C 45.3°F7.4°C 86% 5.0 mph SW8.0 kmh SW 12.0 mph19.3 kmh 30.05 in1017.6 mb 0.00 in0.0 mm 0.00 in0.0 mm 0.00 in0.0 mm
03:14 AM 49.3°F9.6°C 45.3°F7.4°C 86% 5.0 mph SW8.0 kmh SW 12.0 mph19.3 kmh 30.06 in1017.9 mb 0.00 in0.0 mm 0.00 in0.0 mm 0.00 in0.0 mm
03:16 AM 49.3°F9.6°C 45.3°F7.4°C 86% 5.0 mph SW8.0 kmh SW 12.0 mph19.3 kmh 30.06 in1017.9 mb 0.00 in0.0 mm 0.00 in0.0 mm 0.00 in0.0 mm
03:17 AM 49.3°F9.6°C 45.3°F7.4°C 86% 5.0 mph SW8.0 kmh SW 14.0 mph22.5 kmh 30.05 in1017.6 mb 0.00 in0.0 mm 0.00 in0.0 mm 0.00 in0.0 mm
03:19 AM 49.3°F9.6°C 45.3°F7.4°C 86% 6.0 mph SSW9.7 kmh SSW 14.0 mph22.5 kmh 30.05 in1017.6 mb 0.00 in0.0 mm 0.00 in0.0 mm 0.00 in0.0 mm
03:21 AM 49.3°F9.6°C 45.3°F7.4°C 86% 6.0 mph SSW9.7 kmh SSW 14.0 mph22.5 kmh 30.05 in1017.6 mb 0.00 in0.0 mm 0.00 in0.0 mm 0.00 in0.0 mm
03:22 AM 49.3°F9.6°C 45.3°F7.4°C 86% 6.0 mph SW9.7 kmh SW 15.0 mph24.1 kmh 30.05 in1017.6 mb 0.00 in0.0 mm 0.00 in0.0 mm 0.00 in0.0 mm
03:23 AM 49.3°F9.6°C 45.3°F7.4°C 86% 6.0 mph SSW9.7 kmh SSW 15.0 mph24.1 kmh 30.05 in1017.6 mb 0.00 in0.0 mm 0.00 in0.0 mm 0.00 in0.0 mm
03:24 AM 49.3°F9.6°C 45.3°F7.4°C 86% 7.0 mph SSW11.3 kmh SSW 15.0 mph24.1 kmh 30.05 in1017.6 mb 0.00 in0.0 mm 0.00 in0.0 mm 0.00 in0.0 mm
03:26 AM 49.4°F9.7°C 45.4°F7.4°C 86% 7.0 mph SSW11.3 kmh SSW 15.0 mph24.1 kmh 30.05 in1017.6 mb 0.00 in0.0 mm 0.00 in0.0 mm 0.00 in0.0 mm
03:27 AM 49.4°F9.7°C 45.4°F7.4°C 86% 8.0 mph SSW12.9 kmh SSW 15.0 mph24.1 kmh 30.05 in1017.6 mb 0.00 in0.0 mm 0.00 in0.0 mm 0.00 in0.0 mm
03:28 AM 49.4°F9.7°C 45.4°F7.4°C 86% 8.0 mph SSW12.9 kmh SSW 16.0 mph25.7 kmh 30.05 in1017.6 mb 0.00 in0.0 mm 0.00 in0.0 mm 0.00 in0.0 mm
03:29 AM 49.4°F9.7°C 45.4°F7.4°C 86% 8.0 mph SSW12.9 kmh SSW 16.0 mph25.7 kmh 30.05 in1017.6 mb 0.00 in0.0 mm 0.00 in0.0 mm 0.00 in0.0 mm
03:30 AM 49.4°F9.7°C 45.4°F7.4°C 86% 8.0 mph SSW12.9 kmh SSW 16.0 mph25.7 kmh 30.05 in1017.6 mb 0.00 in0.0 mm 0.00 in0.0 mm 0.00 in0.0 mm
03:31 AM 49.4°F9.7°C 45.4°F7.4°C 86% 8.0 mph SSW12.9 kmh SSW 16.0 mph25.7 kmh 30.05 in1017.6 mb 0.00 in0.0 mm 0.00 in0.0 mm 0.00 in0.0 mm
03:32 AM 49.4°F9.7°C 45.4°F7.4°C 86% 8.0 mph SSW12.9 kmh SSW 16.0 mph25.7 kmh 30.05 in1017.6 mb 0.00 in0.0 mm 0.00 in0.0 mm 0.00 in0.0 mm
03:34 AM 49.4°F9.7°C 45.4°F7.4°C 86% 9.0 mph SSW14.5 kmh SSW 16.0 mph25.7 kmh 30.05 in1017.6 mb 0.00 in0.0 mm 0.00 in0.0 mm 0.00 in0.0 mm
03:36 AM 49.4°F9.7°C 45.7°F7.6°C 87% 8.0 mph SW12.9 kmh SW 16.0 mph25.7 kmh 30.05 in1017.6 mb 0.00 in0.0 mm 0.00 in0.0 mm 0.00 in0.0 mm
03:37 AM 49.4°F9.7°C 45.7°F7.6°C 87% 8.0 mph SSW12.9 kmh SSW 16.0 mph25.7 kmh 30.05 in1017.6 mb 0.00 in0.0 mm 0.00 in0.0 mm 0.00 in0.0 mm
03:39 AM 49.4°F9.7°C 45.7°F7.6°C 87% 8.0 mph SSW12.9 kmh SSW 14.0 mph22.5 kmh 30.05 in1017.6 mb 0.00 in0.0 mm 0.00 in0.0 mm 0.00 in0.0 mm
03:40 AM 49.4°F9.7°C 45.7°F7.6°C 87% 8.0 mph SSW12.9 kmh SSW 14.0 mph22.5 kmh 30.06 in1017.9 mb 0.00 in0.0 mm 0.00 in0.0 mm 0.00 in0.0 mm
03:41 AM 49.4°F9.7°C 45.7°F7.6°C 87% 8.0 mph SSW12.9 kmh SSW 14.0 mph22.5 kmh 30.06 in1017.9 mb 0.00 in0.0 mm 0.00 in0.0 mm 0.00 in0.0 mm
03:42 AM 49.4°F9.7°C 45.7°F7.6°C 87% 8.0 mph SW12.9 kmh SW 14.0 mph22.5 kmh 30.06 in1017.9 mb 0.00 in0.0 mm 0.00 in0.0 mm 0.00 in0.0 mm
03:44 AM 49.4°F9.7°C 45.7°F7.6°C 87% 8.0 mph SW12.9 kmh SW 14.0 mph22.5 kmh 30.06 in1017.9 mb 0.00 in0.0 mm 0.00 in0.0 mm 0.00 in0.0 mm
03:46 AM 49.3°F9.6°C 45.6°F7.6°C 87% 8.0 mph SSW12.9 kmh SSW 14.0 mph22.5 kmh 30.05 in1017.6 mb 0.00 in0.0 mm 0.00 in0.0 mm 0.00 in0.0 mm
03:48 AM 49.4°F9.7°C 45.7°F7.6°C 87% 8.0 mph SSW12.9 kmh SSW 14.0 mph22.5 kmh 30.05 in1017.6 mb 0.00 in0.0 mm 0.00 in0.0 mm 0.00 in0.0 mm
03:50 AM 49.4°F9.7°C 45.7°F7.6°C 87% 8.0 mph SW12.9 kmh SW 14.0 mph22.5 kmh 30.06 in1017.9 mb 0.00 in0.0 mm 0.00 in0.0 mm 0.00 in0.0 mm
03:51 AM 49.4°F9.7°C 45.7°F7.6°C 87% 8.0 mph SW12.9 kmh SW 14.0 mph22.5 kmh 30.06 in1017.9 mb 0.00 in0.0 mm 0.00 in0.0 mm 0.00 in0.0 mm
03:52 AM 49.4°F9.7°C 45.7°F7.6°C 87% 8.0 mph SW12.9 kmh SW 15.0 mph24.1 kmh 30.06 in1017.9 mb 0.00 in0.0 mm 0.00 in0.0 mm 0.00 in0.0 mm
03:53 AM 49.4°F9.7°C 45.7°F7.6°C 87% 8.0 mph SSW12.9 kmh SSW 15.0 mph24.1 kmh 30.06 in1017.9 mb 0.00 in0.0 mm 0.00 in0.0 mm 0.00 in0.0 mm
05:30 PM 57.1°F13.9°C 49.2°F9.6°C 75% 8.0 mph SSW12.9 kmh SSW 18.0 mph29.0 kmh 30.18 in1022.0 mb 0.00 in0.0 mm 0.00 in0.0 mm 0.00 in0.0 mm
05:37 PM 49.4°F9.7°C 45.7°F7.6°C 87% 8.0 mph SW12.9 kmh SW 15.0 mph24.1 kmh 30.06 in1017.9 mb 0.00 in0.0 mm 0.00 in0.0 mm 0.00 in0.0 mm
05:38 PM 57.1°F13.9°C 49.2°F9.6°C 75% 8.0 mph S12.9 kmh S 18.0 mph29.0 kmh 30.19 in1022.4 mb 0.00 in0.0 mm 0.00 in0.0 mm 0.00 in0.0 mm
05:39 PM 57.1°F13.9°C 49.2°F9.6°C 75% 8.0 mph S12.9 kmh S 18.0 mph29.0 kmh 30.19 in1022.4 mb 0.00 in0.0 mm 0.00 in0.0 mm 0.00 in0.0 mm
05:40 PM 57.1°F13.9°C 49.2°F9.6°C 75% 8.0 mph S12.9 kmh S 18.0 mph29.0 kmh 30.19 in1022.4 mb 0.00 in0.0 mm 0.00 in0.0 mm 0.00 in0.0 mm
05:42 PM 57.1°F13.9°C 49.2°F9.6°C 75% 8.0 mph S12.9 kmh S 16.0 mph25.7 kmh 30.19 in1022.4 mb 0.00 in0.0 mm 0.00 in0.0 mm 0.00 in0.0 mm
05:43 PM 57.1°F13.9°C 49.2°F9.6°C 75% 8.0 mph S12.9 kmh S 16.0 mph25.7 kmh 30.19 in1022.4 mb 0.00 in0.0 mm 0.00 in0.0 mm 0.00 in0.0 mm
05:45 PM 57.1°F13.9°C 49.2°F9.6°C 75% 8.0 mph S12.9 kmh S 16.0 mph25.7 kmh 30.19 in1022.4 mb 0.00 in0.0 mm 0.00 in0.0 mm 0.00 in0.0 mm
05:47 PM 57.0°F13.9°C 49.2°F9.6°C 75% 8.0 mph S12.9 kmh S 16.0 mph25.7 kmh 30.19 in1022.4 mb 0.00 in0.0 mm 0.00 in0.0 mm 0.00 in0.0 mm
05:48 PM 57.0°F13.9°C 49.2°F9.6°C 75% 8.0 mph S12.9 kmh S 16.0 mph25.7 kmh 30.19 in1022.4 mb 0.00 in0.0 mm 0.00 in0.0 mm 0.00 in0.0 mm
05:49 PM 57.0°F13.9°C 49.2°F9.6°C 75% 8.0 mph S12.9 kmh S 16.0 mph25.7 kmh 30.19 in1022.4 mb 0.00 in0.0 mm 0.00 in0.0 mm 0.00 in0.0 mm
05:51 PM 57.0°F13.9°C 49.2°F9.6°C 75% 8.0 mph SSW12.9 kmh SSW 15.0 mph24.1 kmh 30.19 in1022.4 mb 0.00 in0.0 mm 0.00 in0.0 mm 0.00 in0.0 mm
05:52 PM 56.9°F13.8°C 49.1°F9.5°C 75% 8.0 mph S12.9 kmh S 15.0 mph24.1 kmh 30.19 in1022.4 mb 0.00 in0.0 mm 0.00 in0.0 mm 0.00 in0.0 mm
05:53 PM 56.9°F13.8°C 49.1°F9.5°C 75% 8.0 mph S12.9 kmh S 15.0 mph24.1 kmh 30.19 in1022.4 mb 0.00 in0.0 mm 0.00 in0.0 mm 0.00 in0.0 mm
05:55 PM 56.8°F13.8°C 49.3°F9.6°C 76% 8.0 mph S12.9 kmh S 15.0 mph24.1 kmh 30.19 in1022.4 mb 0.00 in0.0 mm 0.00 in0.0 mm 0.00 in0.0 mm
05:56 PM 56.8°F13.8°C 49.3°F9.6°C 76% 8.0 mph S12.9 kmh S 15.0 mph24.1 kmh 30.19 in1022.4 mb 0.00 in0.0 mm 0.00 in0.0 mm 0.00 in0.0 mm
05:57 PM 56.8°F13.8°C 49.3°F9.6°C 76% 8.0 mph S12.9 kmh S 18.0 mph29.0 kmh 30.19 in1022.4 mb 0.00 in0.0 mm 0.00 in0.0 mm 0.00 in0.0 mm
05:58 PM 56.9°F13.8°C 49.4°F9.7°C 76% 8.0 mph S12.9 kmh S 18.0 mph29.0 kmh 30.19 in1022.4 mb 0.00 in0.0 mm 0.00 in0.0 mm 0.00 in0.0 mm
05:59 PM 56.9°F13.8°C 49.4°F9.7°C 76% 8.0 mph S12.9 kmh S 18.0 mph29.0 kmh 30.19 in1022.4 mb 0.00 in0.0 mm 0.00 in0.0 mm 0.00 in0.0 mm
06:00 PM 56.9°F13.8°C 49.4°F9.7°C 76% 8.0 mph SSW12.9 kmh SSW 18.0 mph29.0 kmh 30.19 in1022.4 mb 0.00 in0.0 mm 0.00 in0.0 mm 0.00 in0.0 mm
06:01 PM 56.9°F13.8°C 49.4°F9.7°C 76% 8.0 mph SSW12.9 kmh SSW 18.0 mph29.0 kmh 30.19 in1022.4 mb 0.00 in0.0 mm 0.00 in0.0 mm 0.00 in0.0 mm
06:02 PM 56.9°F13.8°C 49.1°F9.5°C 75% 8.0 mph SSW12.9 kmh SSW 18.0 mph29.0 kmh 30.19 in1022.4 mb 0.00 in0.0 mm 0.00 in0.0 mm 0.00 in0.0 mm
06:04 PM 56.9°F13.8°C 49.1°F9.5°C 75% 8.0 mph SSW12.9 kmh SSW 18.0 mph29.0 kmh 30.19 in1022.4 mb 0.00 in0.0 mm 0.00 in0.0 mm 0.00 in0.0 mm
06:05 PM 56.9°F13.8°C 49.1°F9.5°C 75% 9.0 mph SSW14.5 kmh SSW 18.0 mph29.0 kmh 30.19 in1022.4 mb 0.00 in0.0 mm 0.00 in0.0 mm 0.00 in0.0 mm
06:07 PM 56.8°F13.8°C 49.3°F9.6°C 76% 8.0 mph S12.9 kmh S 15.0 mph24.1 kmh 30.19 in1022.4 mb 0.00 in0.0 mm 0.00 in0.0 mm 0.00 in0.0 mm
06:08 PM 56.8°F13.8°C 49.3°F9.6°C 76% 8.0 mph S12.9 kmh S 15.0 mph24.1 kmh 30.19 in1022.4 mb 0.00 in0.0 mm 0.00 in0.0 mm 0.00 in0.0 mm
06:10 PM 56.8°F13.8°C 49.3°F9.6°C 76% 8.0 mph S12.9 kmh S 15.0 mph24.1 kmh 30.19 in1022.4 mb 0.00 in0.0 mm 0.00 in0.0 mm 0.00 in0.0 mm
06:11 PM 56.7°F13.7°C 49.2°F9.6°C 76% 8.0 mph S12.9 kmh S 15.0 mph24.1 kmh 30.19 in1022.4 mb 0.00 in0.0 mm 0.00 in0.0 mm 0.00 in0.0 mm
06:13 PM 56.7°F13.7°C 49.2°F9.6°C 76% 8.0 mph S12.9 kmh S 15.0 mph24.1 kmh 30.19 in1022.4 mb 0.00 in0.0 mm 0.00 in0.0 mm 0.00 in0.0 mm
06:14 PM 56.7°F13.7°C 49.2°F9.6°C 76% 8.0 mph S12.9 kmh S 14.0 mph22.5 kmh 30.19 in1022.4 mb 0.00 in0.0 mm 0.00 in0.0 mm 0.00 in0.0 mm
06:16 PM 56.6°F13.7°C 49.5°F9.7°C 77% 8.0 mph S12.9 kmh S 13.0 mph20.9 kmh 30.19 in1022.4 mb 0.00 in0.0 mm 0.00 in0.0 mm 0.00 in0.0 mm
06:17 PM 56.6°F13.7°C 49.5°F9.7°C 77% 8.0 mph S12.9 kmh S 13.0 mph20.9 kmh 30.19 in1022.4 mb 0.00 in0.0 mm 0.00 in0.0 mm 0.00 in0.0 mm
06:19 PM 56.6°F13.7°C 49.5°F9.7°C 77% 8.0 mph S12.9 kmh S 13.0 mph20.9 kmh 30.19 in1022.4 mb 0.00 in0.0 mm 0.00 in0.0 mm 0.00 in0.0 mm
06:20 PM 56.6°F13.7°C 49.5°F9.7°C 77% 8.0 mph S12.9 kmh S 13.0 mph20.9 kmh 30.19 in1022.4 mb 0.00 in0.0 mm 0.00 in0.0 mm 0.00 in0.0 mm
06:21 PM 56.5°F13.6°C 49.4°F9.7°C 77% 8.0 mph S12.9 kmh S 13.0 mph20.9 kmh 30.19 in1022.4 mb 0.00 in0.0 mm 0.00 in0.0 mm 0.00 in0.0 mm
06:22 PM 56.5°F13.6°C 49.4°F9.7°C 77% 8.0 mph S12.9 kmh S 13.0 mph20.9 kmh 30.19 in1022.4 mb 0.00 in0.0 mm 0.00 in0.0 mm 0.00 in0.0 mm
06:23 PM 56.4°F13.6°C 49.3°F9.6°C 77% 7.0 mph S11.3 kmh S 13.0 mph20.9 kmh 30.20 in1022.7 mb 0.00 in0.0 mm 0.00 in0.0 mm 0.00 in0.0 mm
06:25 PM 56.3°F13.5°C 49.2°F9.6°C 77% 7.0 mph SSW11.3 kmh SSW 14.0 mph22.5 kmh 30.20 in1022.7 mb 0.00 in0.0 mm 0.00 in0.0 mm 0.00 in0.0 mm
06:26 PM 56.4°F13.6°C 49.3°F9.6°C 77% 7.0 mph SSW11.3 kmh SSW 16.0 mph25.7 kmh 30.20 in1022.7 mb 0.00 in0.0 mm 0.00 in0.0 mm 0.00 in0.0 mm
06:28 PM 56.4°F13.6°C 49.3°F9.6°C 77% 7.0 mph SSW11.3 kmh SSW 16.0 mph25.7 kmh 30.20 in1022.7 mb 0.00 in0.0 mm 0.00 in0.0 mm 0.00 in0.0 mm
06:29 PM 56.4°F13.6°C 49.3°F9.6°C 77% 7.0 mph SSW11.3 kmh SSW 16.0 mph25.7 kmh 30.20 in1022.7 mb 0.00 in0.0 mm 0.00 in0.0 mm 0.00 in0.0 mm
06:31 PM 56.4°F13.6°C 49.3°F9.6°C 77% 7.0 mph SSW11.3 kmh SSW 16.0 mph25.7 kmh 30.20 in1022.7 mb 0.00 in0.0 mm 0.00 in0.0 mm 0.00 in0.0 mm
06:32 PM 56.4°F13.6°C 49.3°F9.6°C 77% 7.0 mph SSW11.3 kmh SSW 16.0 mph25.7 kmh 30.20 in1022.7 mb 0.00 in0.0 mm 0.00 in0.0 mm 0.00 in0.0 mm
06:34 PM 56.4°F13.6°C 49.3°F9.6°C 77% 7.0 mph SSW11.3 kmh SSW 16.0 mph25.7 kmh 30.20 in1022.7 mb 0.00 in0.0 mm 0.00 in0.0 mm 0.00 in0.0 mm
06:35 PM 56.4°F13.6°C 49.3°F9.6°C 77% 8.0 mph SSW12.9 kmh SSW 16.0 mph25.7 kmh 30.20 in1022.7 mb 0.00 in0.0 mm 0.00 in0.0 mm 0.00 in0.0 mm
06:37 PM 56.4°F13.6°C 49.6°F9.8°C 78% 7.0 mph SSW11.3 kmh SSW 14.0 mph22.5 kmh 30.20 in1022.7 mb 0.00 in0.0 mm 0.00 in0.0 mm 0.00 in0.0 mm
06:38 PM 56.3°F13.5°C 49.5°F9.7°C 78% 7.0 mph SSW11.3 kmh SSW 14.0 mph22.5 kmh 30.20 in1022.7 mb 0.00 in0.0 mm 0.00 in0.0 mm 0.00 in0.0 mm
06:40 PM 56.3°F13.5°C 49.5°F9.7°C 78% 8.0 mph SSW12.9 kmh SSW 14.0 mph22.5 kmh 30.20 in1022.7 mb 0.00 in0.0 mm 0.00 in0.0 mm 0.00 in0.0 mm
06:41 PM 56.3°F13.5°C 49.5°F9.7°C 78% 7.0 mph SSW11.3 kmh SSW 14.0 mph22.5 kmh 30.21 in1023.0 mb 0.00 in0.0 mm 0.00 in0.0 mm 0.00 in0.0 mm
06:42 PM 56.2°F13.4°C 49.4°F9.7°C 78% 7.0 mph SSW11.3 kmh SSW 14.0 mph22.5 kmh 30.21 in1023.0 mb 0.00 in0.0 mm 0.00 in0.0 mm 0.00 in0.0 mm
06:44 PM 56.2°F13.4°C 49.4°F9.7°C 78% 7.0 mph SSW11.3 kmh SSW 14.0 mph22.5 kmh 30.20 in1022.7 mb 0.00 in0.0 mm 0.00 in0.0 mm 0.00 in0.0 mm
06:45 PM 56.2°F13.4°C 49.4°F9.7°C 78% 6.0 mph SSW9.7 kmh SSW 14.0 mph22.5 kmh 30.21 in1023.0 mb 0.00 in0.0 mm 0.00 in0.0 mm 0.00 in0.0 mm
06:47 PM 56.1°F13.4°C 49.3°F9.6°C 78% 6.0 mph SSW9.7 kmh SSW 14.0 mph22.5 kmh 30.21 in1023.0 mb 0.00 in0.0 mm 0.00 in0.0 mm 0.00 in0.0 mm
06:48 PM 56.0°F13.3°C 49.2°F9.6°C 78% 6.0 mph SSW9.7 kmh SSW 12.0 mph19.3 kmh 30.21 in1023.0 mb 0.00 in0.0 mm 0.00 in0.0 mm 0.00 in0.0 mm
06:50 PM 56.0°F13.3°C 49.2°F9.6°C 78% 6.0 mph SSW9.7 kmh SSW 12.0 mph19.3 kmh 30.21 in1023.0 mb 0.00 in0.0 mm 0.00 in0.0 mm 0.00 in0.0 mm
06:51 PM 55.9°F13.3°C 49.1°F9.5°C 78% 6.0 mph SSW9.7 kmh SSW 12.0 mph19.3 kmh 30.21 in1023.0 mb 0.00 in0.0 mm 0.00 in0.0 mm 0.00 in0.0 mm
06:53 PM 55.9°F13.3°C 49.1°F9.5°C 78% 6.0 mph SW9.7 kmh SW 12.0 mph19.3 kmh 30.21 in1023.0 mb 0.00 in0.0 mm 0.00 in0.0 mm 0.00 in0.0 mm
06:54 PM 55.9°F13.3°C 49.1°F9.5°C 78% 6.0 mph SW9.7 kmh SW 12.0 mph19.3 kmh 30.21 in1023.0 mb 0.00 in0.0 mm 0.00 in0.0 mm 0.00 in0.0 mm
06:56 PM 55.9°F13.3°C 49.1°F9.5°C 78% 7.0 mph SW11.3 kmh SW 15.0 mph24.1 kmh 30.21 in1023.0 mb 0.00 in0.0 mm 0.00 in0.0 mm 0.00 in0.0 mm
06:57 PM 55.9°F13.3°C 49.1°F9.5°C 78% 7.0 mph SW11.3 kmh SW 15.0 mph24.1 kmh 30.21 in1023.0 mb 0.00 in0.0 mm 0.00 in0.0 mm 0.00 in0.0 mm
06:59 PM 55.8°F13.2°C 49.0°F9.4°C 78% 7.0 mph SSW11.3 kmh SSW 15.0 mph24.1 kmh 30.21 in1023.0 mb 0.00 in0.0 mm 0.00 in0.0 mm 0.00 in0.0 mm
07:01 PM 55.8°F13.2°C 49.0°F9.4°C 78% 7.0 mph SSW11.3 kmh SSW 15.0 mph24.1 kmh 30.21 in1023.0 mb 0.00 in0.0 mm 0.00 in0.0 mm 0.00 in0.0 mm
07:02 PM 55.8°F13.2°C 49.4°F9.7°C 79% 7.0 mph SSW11.3 kmh SSW 15.0 mph24.1 kmh 30.21 in1023.0 mb 0.00 in0.0 mm 0.00 in0.0 mm 0.00 in0.0 mm
07:03 PM 55.7°F13.2°C 49.3°F9.6°C 79% 7.0 mph SSW11.3 kmh SSW 15.0 mph24.1 kmh 30.21 in1023.0 mb 0.00 in0.0 mm 0.00 in0.0 mm 0.00 in0.0 mm
07:05 PM 55.6°F13.1°C 49.2°F9.6°C 79% 6.0 mph SSW9.7 kmh SSW 11.0 mph17.7 kmh 30.22 in1023.4 mb 0.00 in0.0 mm 0.00 in0.0 mm 0.00 in0.0 mm
07:06 PM 55.7°F13.2°C 49.3°F9.6°C 79% 6.0 mph SSW9.7 kmh SSW 12.0 mph19.3 kmh 30.22 in1023.4 mb 0.00 in0.0 mm 0.00 in0.0 mm 0.00 in0.0 mm
07:08 PM 55.6°F13.1°C 49.2°F9.6°C 79% 5.0 mph SW8.0 kmh SW 12.0 mph19.3 kmh 30.22 in1023.4 mb 0.00 in0.0 mm 0.00 in0.0 mm 0.00 in0.0 mm
07:09 PM 55.5°F13.1°C 49.1°F9.5°C 79% 5.0 mph SSW8.0 kmh SSW 12.0 mph19.3 kmh 30.22 in1023.4 mb 0.00 in0.0 mm 0.00 in0.0 mm 0.00 in0.0 mm
07:11 PM 55.4°F13.0°C 49.0°F9.4°C 79% 5.0 mph SSW8.0 kmh SSW 12.0 mph19.3 kmh 30.22 in1023.4 mb 0.00 in0.0 mm 0.00 in0.0 mm 0.00 in0.0 mm
07:12 PM 55.4°F13.0°C 49.0°F9.4°C 79% 5.0 mph SSW8.0 kmh SSW 12.0 mph19.3 kmh 30.22 in1023.4 mb 0.00 in0.0 mm 0.00 in0.0 mm 0.00 in0.0 mm
07:14 PM 55.4°F13.0°C 49.0°F9.4°C 79% 5.0 mph SSW8.0 kmh SSW 12.0 mph19.3 kmh 30.22 in1023.4 mb 0.00 in0.0 mm 0.00 in0.0 mm 0.00 in0.0 mm
07:15 PM 55.4°F13.0°C 49.0°F9.4°C 79% 5.0 mph SSW8.0 kmh SSW 12.0 mph19.3 kmh 30.22 in1023.4 mb 0.00 in0.0 mm 0.00 in0.0 mm 0.00 in0.0 mm
07:17 PM 55.4°F13.0°C 49.0°F9.4°C 79% 5.0 mph SSW8.0 kmh SSW 10.0 mph16.1 kmh 30.22 in1023.4 mb 0.00 in0.0 mm 0.00 in0.0 mm 0.00 in0.0 mm
07:18 PM 55.4°F13.0°C 49.0°F9.4°C 79% 5.0 mph SW8.0 kmh SW 10.0 mph16.1 kmh 30.22 in1023.4 mb 0.00 in0.0 mm 0.00 in0.0 mm 0.00 in0.0 mm
07:20 PM 55.4°F13.0°C 49.0°F9.4°C 79% 5.0 mph SW8.0 kmh SW 10.0 mph16.1 kmh 30.22 in1023.4 mb 0.00 in0.0 mm 0.00 in0.0 mm 0.00 in0.0 mm
07:21 PM 55.3°F12.9°C 48.9°F9.4°C 79% 5.0 mph SW8.0 kmh SW 10.0 mph16.1 kmh 30.22 in1023.4 mb 0.00 in0.0 mm 0.00 in0.0 mm 0.00 in0.0 mm
07:23 PM 55.3°F12.9°C 49.2°F9.6°C 80% 5.0 mph SW8.0 kmh SW 10.0 mph16.1 kmh 30.22 in1023.4 mb 0.00 in0.0 mm 0.00 in0.0 mm 0.00 in0.0 mm
07:24 PM 55.3°F12.9°C 49.2°F9.6°C 80% 4.0 mph SW6.4 kmh SW 10.0 mph16.1 kmh 30.22 in1023.4 mb 0.00 in0.0 mm 0.00 in0.0 mm 0.00 in0.0 mm
07:26 PM 55.3°F12.9°C 49.2°F9.6°C 80% 4.0 mph SW6.4 kmh SW 10.0 mph16.1 kmh 30.22 in1023.4 mb 0.00 in0.0 mm 0.00 in0.0 mm 0.00 in0.0 mm
07:27 PM 55.2°F12.9°C 49.1°F9.5°C 80% 4.0 mph SW6.4 kmh SW 10.0 mph16.1 kmh 30.22 in1023.4 mb 0.00 in0.0 mm 0.00 in0.0 mm 0.00 in0.0 mm
07:28 PM 55.1°F12.8°C 49.0°F9.4°C 80% 4.0 mph SW6.4 kmh SW 10.0 mph16.1 kmh 30.22 in1023.4 mb 0.00 in0.0 mm 0.00 in0.0 mm 0.00 in0.0 mm
07:30 PM 55.1°F12.8°C 49.0°F9.4°C 80% 4.0 mph SW6.4 kmh SW 10.0 mph16.1 kmh 30.22 in1023.4 mb 0.00 in0.0 mm 0.00 in0.0 mm 0.00 in0.0 mm
07:31 PM 55.0°F12.8°C 48.9°F9.4°C 80% 4.0 mph SW6.4 kmh SW 10.0 mph16.1 kmh 30.22 in1023.4 mb 0.00 in0.0 mm 0.00 in0.0 mm 0.00 in0.0 mm
07:33 PM 55.0°F12.8°C 48.9°F9.4°C 80% 4.0 mph SW6.4 kmh SW 11.0 mph17.7 kmh 30.22 in1023.4 mb 0.00 in0.0 mm 0.00 in0.0 mm 0.00 in0.0 mm
07:34 PM 54.9°F12.7°C 48.8°F9.3°C 80% 5.0 mph SW8.0 kmh SW 11.0 mph17.7 kmh 30.22 in1023.4 mb 0.00 in0.0 mm 0.00 in0.0 mm 0.00 in0.0 mm
07:36 PM 54.9°F12.7°C 48.8°F9.3°C 80% 5.0 mph SSW8.0 kmh SSW 11.0 mph17.7 kmh 30.22 in1023.4 mb 0.00 in0.0 mm 0.00 in0.0 mm 0.00 in0.0 mm
07:37 PM 54.9°F12.7°C 48.8°F9.3°C 80% 5.0 mph SSW8.0 kmh SSW 11.0 mph17.7 kmh 30.23 in1023.7 mb 0.00 in0.0 mm 0.00 in0.0 mm 0.00 in0.0 mm
07:38 PM 54.9°F12.7°C 49.2°F9.6°C 81% 5.0 mph SSW8.0 kmh SSW 11.0 mph17.7 kmh 30.23 in1023.7 mb 0.00 in0.0 mm 0.00 in0.0 mm 0.00 in0.0 mm
07:40 PM 54.9°F12.7°C 49.2°F9.6°C 81% 6.0 mph SSW9.7 kmh SSW 14.0 mph22.5 kmh 30.22 in1023.4 mb 0.00 in0.0 mm 0.00 in0.0 mm 0.00 in0.0 mm
07:41 PM 54.9°F12.7°C 48.8°F9.3°C 80% 6.0 mph SW9.7 kmh SW 14.0 mph22.5 kmh 30.23 in1023.7 mb 0.00 in0.0 mm 0.00 in0.0 mm 0.00 in0.0 mm
07:43 PM 54.8°F12.7°C 48.7°F9.3°C 80% 6.0 mph SW9.7 kmh SW 14.0 mph22.5 kmh 30.22 in1023.4 mb 0.00 in0.0 mm 0.00 in0.0 mm 0.00 in0.0 mm
07:44 PM 54.8°F12.7°C 48.7°F9.3°C 80% 6.0 mph SW9.7 kmh SW 14.0 mph22.5 kmh 30.22 in1023.4 mb 0.00 in0.0 mm 0.00 in0.0 mm 0.00 in0.0 mm
07:45 PM 54.7°F12.6°C 49.0°F9.4°C 81% 6.0 mph SW9.7 kmh SW 14.0 mph22.5 kmh 30.23 in1023.7 mb 0.00 in0.0 mm 0.00 in0.0 mm 0.00 in0.0 mm
07:46 PM 54.7°F12.6°C 49.0°F9.4°C 81% 6.0 mph SW9.7 kmh SW 14.0 mph22.5 kmh 30.23 in1023.7 mb 0.00 in0.0 mm 0.00 in0.0 mm 0.00 in0.0 mm
07:48 PM 54.5°F12.5°C 48.8°F9.3°C 81% 6.0 mph SW9.7 kmh SW 14.0 mph22.5 kmh 30.23 in1023.7 mb 0.00 in0.0 mm 0.00 in0.0 mm 0.00 in0.0 mm
07:49 PM 54.5°F12.5°C 48.8°F9.3°C 81% 6.0 mph SW9.7 kmh SW 14.0 mph22.5 kmh 30.23 in1023.7 mb 0.00 in0.0 mm 0.00 in0.0 mm 0.00 in0.0 mm
07:51 PM 54.4°F12.4°C 48.7°F9.3°C 81% 6.0 mph SW9.7 kmh SW 12.0 mph19.3 kmh 30.23 in1023.7 mb 0.00 in0.0 mm 0.00 in0.0 mm 0.00 in0.0 mm
07:52 PM 54.4°F12.4°C 48.7°F9.3°C 81% 6.0 mph SW9.7 kmh SW 12.0 mph19.3 kmh 30.23 in1023.7 mb 0.00 in0.0 mm 0.00 in0.0 mm 0.00 in0.0 mm
07:54 PM 54.3°F12.4°C 48.9°F9.4°C 82% 6.0 mph SW9.7 kmh SW 13.0 mph20.9 kmh 30.23 in1023.7 mb 0.00 in0.0 mm 0.00 in0.0 mm 0.00 in0.0 mm
07:55 PM 54.3°F12.4°C 48.9°F9.4°C 82% 6.0 mph SW9.7 kmh SW 13.0 mph20.9 kmh 30.23 in1023.7 mb 0.00 in0.0 mm 0.00 in0.0 mm 0.00 in0.0 mm
07:57 PM 54.3°F12.4°C 48.9°F9.4°C 82% 6.0 mph SW9.7 kmh SW 13.0 mph20.9 kmh 30.23 in1023.7 mb 0.00 in0.0 mm 0.00 in0.0 mm 0.00 in0.0 mm
07:58 PM 54.4°F12.4°C 49.0°F9.4°C 82% 6.0 mph SW9.7 kmh SW 13.0 mph20.9 kmh 30.23 in1023.7 mb 0.00 in0.0 mm 0.00 in0.0 mm 0.00 in0.0 mm
08:00 PM 54.4°F12.4°C 49.0°F9.4°C 82% 5.0 mph SW8.0 kmh SW 13.0 mph20.9 kmh 30.23 in1023.7 mb 0.00 in0.0 mm 0.00 in0.0 mm 0.00 in0.0 mm
08:01 PM 54.4°F12.4°C 49.0°F9.4°C 82% 5.0 mph SW8.0 kmh SW 13.0 mph20.9 kmh 30.23 in1023.7 mb 0.00 in0.0 mm 0.00 in0.0 mm 0.00 in0.0 mm
08:03 PM 54.4°F12.4°C 49.0°F9.4°C 82% 5.0 mph SW8.0 kmh SW 13.0 mph20.9 kmh 30.23 in1023.7 mb 0.00 in0.0 mm 0.00 in0.0 mm 0.00 in0.0 mm
08:04 PM 54.4°F12.4°C 49.0°F9.4°C 82% 5.0 mph SW8.0 kmh SW 12.0 mph19.3 kmh 30.23 in1023.7 mb 0.00 in0.0 mm 0.00 in0.0 mm 0.00 in0.0 mm
08:06 PM 54.5°F12.5°C 49.1°F9.5°C 82% 4.0 mph SW6.4 kmh SW 12.0 mph19.3 kmh 30.23 in1023.7 mb 0.00 in0.0 mm 0.00 in0.0 mm 0.00 in0.0 mm
08:07 PM 54.5°F12.5°C 49.1°F9.5°C 82% 4.0 mph SW6.4 kmh SW 12.0 mph19.3 kmh 30.23 in1023.7 mb 0.00 in0.0 mm 0.00 in0.0 mm 0.00 in0.0 mm
08:09 PM 54.5°F12.5°C 49.1°F9.5°C 82% 5.0 mph SW8.0 kmh SW 12.0 mph19.3 kmh 30.23 in1023.7 mb 0.00 in0.0 mm 0.00 in0.0 mm 0.00 in0.0 mm
08:10 PM 54.5°F12.5°C 49.1°F9.5°C 82% 5.0 mph SW8.0 kmh SW 12.0 mph19.3 kmh 30.23 in1023.7 mb 0.00 in0.0 mm 0.00 in0.0 mm 0.00 in0.0 mm
08:12 PM 54.5°F12.5°C 49.1°F9.5°C 82% 5.0 mph SW8.0 kmh SW 12.0 mph19.3 kmh 30.23 in1023.7 mb 0.00 in0.0 mm 0.00 in0.0 mm 0.00 in0.0 mm
08:13 PM 54.5°F12.5°C 49.1°F9.5°C 82% 5.0 mph SW8.0 kmh SW 10.0 mph16.1 kmh 30.23 in1023.7 mb 0.00 in0.0 mm 0.00 in0.0 mm 0.00 in0.0 mm
08:15 PM 54.5°F12.5°C 49.1°F9.5°C 82% 5.0 mph SW8.0 kmh SW 11.0 mph17.7 kmh 30.23 in1023.7 mb 0.00 in0.0 mm 0.00 in0.0 mm 0.00 in0.0 mm
08:16 PM 54.5°F12.5°C 49.1°F9.5°C 82% 5.0 mph SW8.0 kmh SW 11.0 mph17.7 kmh 30.23 in1023.7 mb 0.00 in0.0 mm 0.00 in0.0 mm 0.00 in0.0 mm
08:18 PM 54.5°F12.5°C 49.4°F9.7°C 83% 5.0 mph SW8.0 kmh SW 11.0 mph17.7 kmh 30.23 in1023.7 mb 0.00 in0.0 mm 0.00 in0.0 mm 0.00 in0.0 mm
08:19 PM 54.4°F12.4°C 49.3°F9.6°C 83% 5.0 mph SW8.0 kmh SW 11.0 mph17.7 kmh 30.23 in1023.7 mb 0.00 in0.0 mm 0.00 in0.0 mm 0.00 in0.0 mm
08:20 PM 54.4°F12.4°C 49.3°F9.6°C 83% 5.0 mph SW8.0 kmh SW 11.0 mph17.7 kmh 30.23 in1023.7 mb 0.00 in0.0 mm 0.00 in0.0 mm 0.00 in0.0 mm
08:21 PM 54.3°F12.4°C 49.2°F9.6°C 83% 5.0 mph SW8.0 kmh SW 11.0 mph17.7 kmh 30.23 in1023.7 mb 0.00 in0.0 mm 0.00 in0.0 mm 0.00 in0.0 mm
08:23 PM 54.3°F12.4°C 49.2°F9.6°C 83% 5.0 mph SW8.0 kmh SW 11.0 mph17.7 kmh 30.23 in1023.7 mb 0.00 in0.0 mm 0.00 in0.0 mm 0.00 in0.0 mm
08:24 PM 54.3°F12.4°C 49.2°F9.6°C 83% 5.0 mph SW8.0 kmh SW 10.0 mph16.1 kmh 30.23 in1023.7 mb 0.00 in0.0 mm 0.00 in0.0 mm 0.00 in0.0 mm
08:26 PM 54.2°F12.3°C 49.1°F9.5°C 83% 5.0 mph SW8.0 kmh SW 10.0 mph16.1 kmh 30.23 in1023.7 mb 0.00 in0.0 mm 0.00 in0.0 mm 0.00 in0.0 mm
08:27 PM 54.2°F12.3°C 49.1°F9.5°C 83% 5.0 mph SW8.0 kmh SW 10.0 mph16.1 kmh 30.23 in1023.7 mb 0.00 in0.0 mm 0.00 in0.0 mm 0.00 in0.0 mm
08:29 PM 54.2°F12.3°C 49.1°F9.5°C 83% 4.0 mph SW6.4 kmh SW 10.0 mph16.1 kmh 30.23 in1023.7 mb 0.00 in0.0 mm 0.00 in0.0 mm 0.00 in0.0 mm
08:30 PM 54.2°F12.3°C 49.1°F9.5°C 83% 5.0 mph SW8.0 kmh SW 10.0 mph16.1 kmh 30.23 in1023.7 mb 0.00 in0.0 mm 0.00 in0.0 mm 0.00 in0.0 mm
08:31 PM 54.3°F12.4°C 49.2°F9.6°C 83% 5.0 mph SW8.0 kmh SW 9.0 mph14.5 kmh 30.23 in1023.7 mb 0.00 in0.0 mm 0.00 in0.0 mm 0.00 in0.0 mm
08:33 PM 54.3°F12.4°C 49.2°F9.6°C 83% 5.0 mph SW8.0 kmh SW 9.0 mph14.5 kmh 30.23 in1023.7 mb 0.00 in0.0 mm 0.00 in0.0 mm 0.00 in0.0 mm
08:34 PM 54.3°F12.4°C 49.2°F9.6°C 83% 5.0 mph SW8.0 kmh SW 9.0 mph14.5 kmh 30.23 in1023.7 mb 0.00 in0.0 mm 0.00 in0.0 mm 0.00 in0.0 mm
08:36 PM 54.3°F12.4°C 49.2°F9.6°C 83% 5.0 mph SW8.0 kmh SW 9.0 mph14.5 kmh 30.23 in1023.7 mb 0.00 in0.0 mm 0.00 in0.0 mm 0.00 in0.0 mm
08:37 PM 54.3°F12.4°C 49.2°F9.6°C 83% 5.0 mph SW8.0 kmh SW 9.0 mph14.5 kmh 30.23 in1023.7 mb 0.00 in0.0 mm 0.00 in0.0 mm 0.00 in0.0 mm
08:39 PM 54.4°F12.4°C 49.3°F9.6°C 83% 5.0 mph SW8.0 kmh SW 11.0 mph17.7 kmh 30.23 in1023.7 mb 0.00 in0.0 mm 0.00 in0.0 mm 0.00 in0.0 mm
08:40 PM 54.4°F12.4°C 49.3°F9.6°C 83% 5.0 mph SW8.0 kmh SW 11.0 mph17.7 kmh 30.23 in1023.7 mb 0.00 in0.0 mm 0.00 in0.0 mm 0.00 in0.0 mm
08:42 PM 54.5°F12.5°C 49.4°F9.7°C 83% 5.0 mph SW8.0 kmh SW 11.0 mph17.7 kmh 30.23 in1023.7 mb 0.00 in0.0 mm 0.00 in0.0 mm 0.00 in0.0 mm
08:43 PM 54.5°F12.5°C 49.4°F9.7°C 83% 5.0 mph SW8.0 kmh SW 11.0 mph17.7 kmh 30.24 in1024.0 mb 0.00 in0.0 mm 0.00 in0.0 mm 0.00 in0.0 mm
08:45 PM 54.6°F12.6°C 49.5°F9.7°C 83% 5.0 mph SW8.0 kmh SW 13.0 mph20.9 kmh 30.23 in1023.7 mb 0.00 in0.0 mm 0.00 in0.0 mm 0.00 in0.0 mm
08:46 PM 54.7°F12.6°C 49.6°F9.8°C 83% 5.0 mph SW8.0 kmh SW 13.0 mph20.9 kmh 30.23 in1023.7 mb 0.00 in0.0 mm 0.00 in0.0 mm 0.00 in0.0 mm
08:48 PM 54.7°F12.6°C 49.3°F9.6°C 82% 5.0 mph SW8.0 kmh SW 13.0 mph20.9 kmh 30.23 in1023.7 mb 0.00 in0.0 mm 0.00 in0.0 mm 0.00 in0.0 mm
08:49 PM 54.7°F12.6°C 49.3°F9.6°C 82% 5.0 mph SW8.0 kmh SW 13.0 mph20.9 kmh 30.23 in1023.7 mb 0.00 in0.0 mm 0.00 in0.0 mm 0.00 in0.0 mm
08:51 PM 54.7°F12.6°C 49.3°F9.6°C 82% 6.0 mph SW9.7 kmh SW 13.0 mph20.9 kmh 30.24 in1024.0 mb 0.00 in0.0 mm 0.00 in0.0 mm 0.00 in0.0 mm
08:52 PM 54.6°F12.6°C 49.2°F9.6°C 82% 5.0 mph SW8.0 kmh SW 13.0 mph20.9 kmh 30.23 in1023.7 mb 0.00 in0.0 mm 0.00 in0.0 mm 0.00 in0.0 mm
08:54 PM 54.5°F12.5°C 49.1°F9.5°C 82% 5.0 mph SW8.0 kmh SW 9.0 mph14.5 kmh 30.24 in1024.0 mb 0.00 in0.0 mm 0.00 in0.0 mm 0.00 in0.0 mm
08:55 PM 54.5°F12.5°C 49.1°F9.5°C 82% 5.0 mph SW8.0 kmh SW 9.0 mph14.5 kmh 30.24 in1024.0 mb 0.00 in0.0 mm 0.00 in0.0 mm 0.00 in0.0 mm
08:57 PM 54.5°F12.5°C 49.4°F9.7°C 83% 5.0 mph SW8.0 kmh SW 10.0 mph16.1 kmh 30.23 in1023.7 mb 0.00 in0.0 mm 0.00 in0.0 mm 0.00 in0.0 mm
08:58 PM 54.5°F12.5°C 49.4°F9.7°C 83% 5.0 mph SW8.0 kmh SW 10.0 mph16.1 kmh 30.24 in1024.0 mb 0.00 in0.0 mm 0.00 in0.0 mm 0.00 in0.0 mm
09:00 PM 54.5°F12.5°C 49.4°F9.7°C 83% 5.0 mph SW8.0 kmh SW 10.0 mph16.1 kmh 30.24 in1024.0 mb 0.00 in0.0 mm 0.00 in0.0 mm 0.00 in0.0 mm
09:01 PM 54.5°F12.5°C 49.4°F9.7°C 83% 5.0 mph SW8.0 kmh SW 10.0 mph16.1 kmh 30.24 in1024.0 mb 0.00 in0.0 mm 0.00 in0.0 mm 0.00 in0.0 mm
09:03 PM 54.5°F12.5°C 49.4°F9.7°C 83% 5.0 mph SW8.0 kmh SW 10.0 mph16.1 kmh 30.24 in1024.0 mb 0.00 in0.0 mm 0.00 in0.0 mm 0.00 in0.0 mm
09:05 PM 54.5°F12.5°C 49.4°F9.7°C 83% 5.0 mph SW8.0 kmh SW 10.0 mph16.1 kmh 30.24 in1024.0 mb 0.00 in0.0 mm 0.00 in0.0 mm 0.00 in0.0 mm
09:06 PM 54.5°F12.5°C 49.4°F9.7°C 83% 5.0 mph SW8.0 kmh SW 10.0 mph16.1 kmh 30.24 in1024.0 mb 0.00 in0.0 mm 0.00 in0.0 mm 0.00 in0.0 mm
09:08 PM 54.4°F12.4°C 49.3°F9.6°C 83% 5.0 mph SW8.0 kmh SW 10.0 mph16.1 kmh 30.24 in1024.0 mb 0.00 in0.0 mm 0.00 in0.0 mm 0.00 in0.0 mm
09:09 PM 54.3°F12.4°C 49.2°F9.6°C 83% 5.0 mph SW8.0 kmh SW 10.0 mph16.1 kmh 30.24 in1024.0 mb 0.00 in0.0 mm 0.00 in0.0 mm 0.00 in0.0 mm
09:11 PM 54.4°F12.4°C 49.3°F9.6°C 83% 4.0 mph SW6.4 kmh SW 10.0 mph16.1 kmh 30.24 in1024.0 mb 0.00 in0.0 mm 0.00 in0.0 mm 0.00 in0.0 mm
09:12 PM 54.4°F12.4°C 49.3°F9.6°C 83% 5.0 mph SW8.0 kmh SW 10.0 mph16.1 kmh 30.24 in1024.0 mb 0.00 in0.0 mm 0.00 in0.0 mm 0.00 in0.0 mm
09:14 PM 54.4°F12.4°C 49.3°F9.6°C 83% 5.0 mph SW8.0 kmh SW 11.0 mph17.7 kmh 30.24 in1024.0 mb 0.00 in0.0 mm 0.00 in0.0 mm 0.00 in0.0 mm
09:15 PM 54.4°F12.4°C 49.3°F9.6°C 83% 5.0 mph SW8.0 kmh SW 11.0 mph17.7 kmh 30.24 in1024.0 mb 0.00 in0.0 mm 0.00 in0.0 mm 0.00 in0.0 mm
09:17 PM 54.4°F12.4°C 49.3°F9.6°C 83% 5.0 mph SW8.0 kmh SW 11.0 mph17.7 kmh 30.24 in1024.0 mb 0.00 in0.0 mm 0.00 in0.0 mm 0.00 in0.0 mm
09:19 PM 54.4°F12.4°C 49.3°F9.6°C 83% 5.0 mph SW8.0 kmh SW 11.0 mph17.7 kmh 30.24 in1024.0 mb 0.00 in0.0 mm 0.00 in0.0 mm 0.00 in0.0 mm
09:20 PM 54.4°F12.4°C 49.3°F9.6°C 83% 5.0 mph SW8.0 kmh SW 11.0 mph17.7 kmh 30.24 in1024.0 mb 0.00 in0.0 mm 0.00 in0.0 mm 0.00 in0.0 mm
09:22 PM 54.3°F12.4°C 49.2°F9.6°C 83% 5.0 mph SW8.0 kmh SW 11.0 mph17.7 kmh 30.24 in1024.0 mb 0.00 in0.0 mm 0.00 in0.0 mm 0.00 in0.0 mm
09:23 PM 54.3°F12.4°C 49.2°F9.6°C 83% 5.0 mph SW8.0 kmh SW 11.0 mph17.7 kmh 30.24 in1024.0 mb 0.00 in0.0 mm 0.00 in0.0 mm 0.00 in0.0 mm
09:25 PM 54.2°F12.3°C 49.1°F9.5°C 83% 5.0 mph SW8.0 kmh SW 8.0 mph12.9 kmh 30.24 in1024.0 mb 0.00 in0.0 mm 0.00 in0.0 mm 0.00 in0.0 mm
09:26 PM 54.2°F12.3°C 49.1°F9.5°C 83% 4.0 mph SW6.4 kmh SW 8.0 mph12.9 kmh 30.24 in1024.0 mb 0.00 in0.0 mm 0.00 in0.0 mm 0.00 in0.0 mm
09:28 PM 54.1°F12.3°C 49.1°F9.5°C 83% 4.0 mph SW6.4 kmh SW 8.0 mph12.9 kmh 30.24 in1024.0 mb 0.00 in0.0 mm 0.00 in0.0 mm 0.00 in0.0 mm
09:29 PM 54.0°F12.2°C 49.3°F9.6°C 84% 4.0 mph SW6.4 kmh SW 8.0 mph12.9 kmh 30.24 in1024.0 mb 0.00 in0.0 mm 0.00 in0.0 mm 0.00 in0.0 mm
09:31 PM 53.9°F12.2°C 49.2°F9.6°C 84% 4.0 mph SW6.4 kmh SW 8.0 mph12.9 kmh 30.24 in1024.0 mb 0.00 in0.0 mm 0.00 in0.0 mm 0.00 in0.0 mm
09:32 PM 53.9°F12.2°C 49.2°F9.6°C 84% 4.0 mph SW6.4 kmh SW 8.0 mph12.9 kmh 30.24 in1024.0 mb 0.00 in0.0 mm 0.00 in0.0 mm 0.00 in0.0 mm
09:33 PM 53.8°F12.1°C 49.1°F9.5°C 84% 4.0 mph SW6.4 kmh SW 10.0 mph16.1 kmh 30.24 in1024.0 mb 0.00 in0.0 mm 0.00 in0.0 mm 0.00 in0.0 mm
09:35 PM 53.7°F12.1°C 49.0°F9.4°C 84% 4.0 mph SW6.4 kmh SW 10.0 mph16.1 kmh 30.24 in1024.0 mb 0.00 in0.0 mm 0.00 in0.0 mm 0.00 in0.0 mm
09:36 PM 53.7°F12.1°C 49.0°F9.4°C 84% 4.0 mph SW6.4 kmh SW 10.0 mph16.1 kmh 30.24 in1024.0 mb 0.00 in0.0 mm 0.00 in0.0 mm 0.00 in0.0 mm
09:38 PM 53.5°F11.9°C 48.8°F9.3°C 84% 5.0 mph SW8.0 kmh SW 10.0 mph16.1 kmh 30.24 in1024.0 mb 0.00 in0.0 mm 0.00 in0.0 mm 0.00 in0.0 mm
09:39 PM 53.4°F11.9°C 49.0°F9.4°C 85% 5.0 mph SW8.0 kmh SW 10.0 mph16.1 kmh 30.24 in1024.0 mb 0.00 in0.0 mm 0.00 in0.0 mm 0.00 in0.0 mm
09:41 PM 53.3°F11.8°C 48.9°F9.4°C 85% 5.0 mph SW8.0 kmh SW 10.0 mph16.1 kmh 30.24 in1024.0 mb 0.00 in0.0 mm 0.00 in0.0 mm 0.00 in0.0 mm
09:42 PM 53.3°F11.8°C 48.9°F9.4°C 85% 5.0 mph SW8.0 kmh SW 10.0 mph16.1 kmh 30.24 in1024.0 mb 0.00 in0.0 mm 0.00 in0.0 mm 0.00 in0.0 mm
09:44 PM 53.2°F11.8°C 48.8°F9.3°C 85% 4.0 mph SW6.4 kmh SW 10.0 mph16.1 kmh 30.24 in1024.0 mb 0.00 in0.0 mm 0.00 in0.0 mm 0.00 in0.0 mm
09:45 PM 53.2°F11.8°C 48.8°F9.3°C 85% 4.0 mph SW6.4 kmh SW 10.0 mph16.1 kmh 30.24 in1024.0 mb 0.00 in0.0 mm 0.00 in0.0 mm 0.00 in0.0 mm
09:46 PM 53.2°F11.8°C 48.8°F9.3°C 85% 4.0 mph SW6.4 kmh SW 10.0 mph16.1 kmh 30.24 in1024.0 mb 0.00 in0.0 mm 0.00 in0.0 mm 0.00 in0.0 mm
09:47 PM 53.2°F11.8°C 48.8°F9.3°C 85% 4.0 mph SW6.4 kmh SW 8.0 mph12.9 kmh 30.24 in1024.0 mb 0.00 in0.0 mm 0.00 in0.0 mm 0.00 in0.0 mm
09:49 PM 53.1°F11.7°C 48.7°F9.3°C 85% 4.0 mph SW6.4 kmh SW 8.0 mph12.9 kmh 30.24 in1024.0 mb 0.00 in0.0 mm 0.00 in0.0 mm 0.00 in0.0 mm
09:50 PM 53.1°F11.7°C 49.0°F9.4°C 86% 4.0 mph SW6.4 kmh SW 8.0 mph12.9 kmh 30.24 in1024.0 mb 0.00 in0.0 mm 0.00 in0.0 mm 0.00 in0.0 mm
09:51 PM 53.1°F11.7°C 49.0°F9.4°C 86% 4.0 mph SW6.4 kmh SW 8.0 mph12.9 kmh 30.24 in1024.0 mb 0.00 in0.0 mm 0.00 in0.0 mm 0.00 in0.0 mm
09:53 PM 53.1°F11.7°C 49.0°F9.4°C 86% 4.0 mph SW6.4 kmh SW 8.0 mph12.9 kmh 30.24 in1024.0 mb 0.00 in0.0 mm 0.00 in0.0 mm 0.00 in0.0 mm
09:54 PM 53.1°F11.7°C 49.0°F9.4°C 86% 4.0 mph SW6.4 kmh SW 9.0 mph14.5 kmh 30.24 in1024.0 mb 0.00 in0.0 mm 0.00 in0.0 mm 0.00 in0.0 mm
09:55 PM 53.0°F11.7°C 48.9°F9.4°C 86% 4.0 mph SW6.4 kmh SW 9.0 mph14.5 kmh 30.24 in1024.0 mb 0.00 in0.0 mm 0.00 in0.0 mm 0.00 in0.0 mm
09:56 PM 53.0°F11.7°C 48.9°F9.4°C 86% 4.0 mph SW6.4 kmh SW 9.0 mph14.5 kmh 30.24 in1024.0 mb 0.00 in0.0 mm 0.00 in0.0 mm 0.00 in0.0 mm
09:58 PM 53.0°F11.7°C 48.9°F9.4°C 86% 4.0 mph SW6.4 kmh SW 9.0 mph14.5 kmh 30.24 in1024.0 mb 0.00 in0.0 mm 0.00 in0.0 mm 0.00 in0.0 mm
09:59 PM 53.0°F11.7°C 48.9°F9.4°C 86% 4.0 mph SW6.4 kmh SW 9.0 mph14.5 kmh 30.25 in1024.4 mb 0.00 in0.0 mm 0.00 in0.0 mm 0.00 in0.0 mm
10:00 PM 53.0°F11.7°C 48.9°F9.4°C 86% 4.0 mph SW6.4 kmh SW 9.0 mph14.5 kmh 30.24 in1024.0 mb 0.00 in0.0 mm 0.00 in0.0 mm 0.00 in0.0 mm
10:01 PM 53.0°F11.7°C 48.9°F9.4°C 86% 4.0 mph SW6.4 kmh SW 9.0 mph14.5 kmh 30.24 in1024.0 mb 0.00 in0.0 mm 0.00 in0.0 mm 0.00 in0.0 mm
10:03 PM 53.0°F11.7°C 48.9°F9.4°C 86% 4.0 mph SW6.4 kmh SW 9.0 mph14.5 kmh 30.25 in1024.4 mb 0.00 in0.0 mm 0.00 in0.0 mm 0.00 in0.0 mm
10:04 PM 53.0°F11.7°C 48.9°F9.4°C 86% 4.0 mph SW6.4 kmh SW 7.0 mph11.3 kmh 30.25 in1024.4 mb 0.00 in0.0 mm 0.00 in0.0 mm 0.00 in0.0 mm
10:06 PM 52.9°F11.6°C 48.8°F9.3°C 86% 4.0 mph SW6.4 kmh SW 7.0 mph11.3 kmh 30.25 in1024.4 mb 0.00 in0.0 mm 0.00 in0.0 mm 0.00 in0.0 mm
10:07 PM 52.9°F11.6°C 48.8°F9.3°C 86% 4.0 mph SW6.4 kmh SW 8.0 mph12.9 kmh 30.25 in1024.4 mb 0.00 in0.0 mm 0.00 in0.0 mm 0.00 in0.0 mm
10:09 PM 52.9°F11.6°C 48.8°F9.3°C 86% 4.0 mph SW6.4 kmh SW 8.0 mph12.9 kmh 30.25 in1024.4 mb 0.00 in0.0 mm 0.00 in0.0 mm 0.00 in0.0 mm
10:10 PM 52.8°F11.6°C 48.7°F9.3°C 86% 4.0 mph SW6.4 kmh SW 8.0 mph12.9 kmh 30.25 in1024.4 mb 0.00 in0.0 mm 0.00 in0.0 mm 0.00 in0.0 mm
10:12 PM 52.8°F11.6°C 48.7°F9.3°C 86% 4.0 mph SW6.4 kmh SW 8.0 mph12.9 kmh 30.25 in1024.4 mb 0.00 in0.0 mm 0.00 in0.0 mm 0.00 in0.0 mm
10:13 PM 52.8°F11.6°C 48.7°F9.3°C 86% 4.0 mph SW6.4 kmh SW 8.0 mph12.9 kmh 30.25 in1024.4 mb 0.00 in0.0 mm 0.00 in0.0 mm 0.00 in0.0 mm
10:15 PM 52.7°F11.5°C 48.6°F9.2°C 86% 4.0 mph SW6.4 kmh SW 8.0 mph12.9 kmh 30.25 in1024.4 mb 0.00 in0.0 mm 0.00 in0.0 mm 0.00 in0.0 mm
10:16 PM 52.7°F11.5°C 48.9°F9.4°C 87% 4.0 mph SW6.4 kmh SW 8.0 mph12.9 kmh 30.25 in1024.4 mb 0.00 in0.0 mm 0.00 in0.0 mm 0.00 in0.0 mm
10:18 PM 52.7°F11.5°C 48.9°F9.4°C 87% 3.0 mph SW4.8 kmh SW 7.0 mph11.3 kmh 30.25 in1024.4 mb 0.00 in0.0 mm 0.00 in0.0 mm 0.00 in0.0 mm
10:19 PM 52.7°F11.5°C 48.9°F9.4°C 87% 3.0 mph SW4.8 kmh SW 7.0 mph11.3 kmh 30.25 in1024.4 mb 0.00 in0.0 mm 0.00 in0.0 mm 0.00 in0.0 mm
10:21 PM 52.7°F11.5°C 48.9°F9.4°C 87% 4.0 mph SW6.4 kmh SW 10.0 mph16.1 kmh 30.25 in1024.4 mb 0.00 in0.0 mm 0.00 in0.0 mm 0.00 in0.0 mm
10:22 PM 52.7°F11.5°C 48.9°F9.4°C 87% 4.0 mph SW6.4 kmh SW 10.0 mph16.1 kmh 30.25 in1024.4 mb 0.00 in0.0 mm 0.00 in0.0 mm 0.00 in0.0 mm
10:23 PM 52.7°F11.5°C 48.9°F9.4°C 87% 4.0 mph SW6.4 kmh SW 10.0 mph16.1 kmh 30.25 in1024.4 mb 0.00 in0.0 mm 0.00 in0.0 mm 0.00 in0.0 mm
10:25 PM 52.7°F11.5°C 48.9°F9.4°C 87% 4.0 mph SW6.4 kmh SW 11.0 mph17.7 kmh 30.25 in1024.4 mb 0.00 in0.0 mm 0.00 in0.0 mm 0.00 in0.0 mm
10:26 PM 52.8°F11.6°C 49.0°F9.4°C 87% 4.0 mph SW6.4 kmh SW 11.0 mph17.7 kmh 30.25 in1024.4 mb 0.00 in0.0 mm 0.00 in0.0 mm 0.00 in0.0 mm
10:28 PM 52.8°F11.6°C 49.0°F9.4°C 87% 5.0 mph SW8.0 kmh SW 11.0 mph17.7 kmh 30.25 in1024.4 mb 0.00 in0.0 mm 0.00 in0.0 mm 0.00 in0.0 mm
10:29 PM 52.8°F11.6°C 49.0°F9.4°C 87% 5.0 mph SW8.0 kmh SW 11.0 mph17.7 kmh 30.25 in1024.4 mb 0.00 in0.0 mm 0.00 in0.0 mm 0.00 in0.0 mm
10:31 PM 52.8°F11.6°C 49.0°F9.4°C 87% 5.0 mph SW8.0 kmh SW 11.0 mph17.7 kmh 30.25 in1024.4 mb 0.00 in0.0 mm 0.00 in0.0 mm 0.00 in0.0 mm
10:32 PM 52.7°F11.5°C 48.9°F9.4°C 87% 5.0 mph SW8.0 kmh SW 11.0 mph17.7 kmh 30.25 in1024.4 mb 0.00 in0.0 mm 0.00 in0.0 mm 0.00 in0.0 mm
10:34 PM 52.6°F11.4°C 48.8°F9.3°C 87% 5.0 mph SW8.0 kmh SW 11.0 mph17.7 kmh 30.25 in1024.4 mb 0.00 in0.0 mm 0.00 in0.0 mm 0.00 in0.0 mm
10:35 PM 52.6°F11.4°C 48.8°F9.3°C 87% 5.0 mph SW8.0 kmh SW 10.0 mph16.1 kmh 30.25 in1024.4 mb 0.00 in0.0 mm 0.00 in0.0 mm 0.00 in0.0 mm
10:36 PM 52.6°F11.4°C 48.8°F9.3°C 87% 4.0 mph SW6.4 kmh SW 10.0 mph16.1 kmh 30.25 in1024.4 mb 0.00 in0.0 mm 0.00 in0.0 mm 0.00 in0.0 mm
10:38 PM 52.5°F11.4°C 48.7°F9.3°C 87% 4.0 mph SW6.4 kmh SW 8.0 mph12.9 kmh 30.25 in1024.4 mb 0.00 in0.0 mm 0.00 in0.0 mm 0.00 in0.0 mm
10:39 PM 52.5°F11.4°C 48.7°F9.3°C 87% 4.0 mph SW6.4 kmh SW 8.0 mph12.9 kmh 30.25 in1024.4 mb 0.00 in0.0 mm 0.00 in0.0 mm 0.00 in0.0 mm
10:41 PM 52.4°F11.3°C 48.6°F9.2°C 87% 4.0 mph SW6.4 kmh SW 8.0 mph12.9 kmh 30.25 in1024.4 mb 0.00 in0.0 mm 0.00 in0.0 mm 0.00 in0.0 mm
10:42 PM 52.4°F11.3°C 48.6°F9.2°C 87% 3.0 mph SW4.8 kmh SW 8.0 mph12.9 kmh 30.25 in1024.4 mb 0.00 in0.0 mm 0.00 in0.0 mm 0.00 in0.0 mm
10:44 PM 52.3°F11.3°C 48.5°F9.2°C 87% 3.0 mph SW4.8 kmh SW 8.0 mph12.9 kmh 30.26 in1024.7 mb 0.00 in0.0 mm 0.00 in0.0 mm 0.00 in0.0 mm
10:45 PM 52.3°F11.3°C 48.9°F9.4°C 88% 3.0 mph SW4.8 kmh SW 8.0 mph12.9 kmh 30.26 in1024.7 mb 0.00 in0.0 mm 0.00 in0.0 mm 0.00 in0.0 mm
10:47 PM 52.2°F11.2°C 48.8°F9.3°C 88% 3.0 mph SW4.8 kmh SW 8.0 mph12.9 kmh 30.26 in1024.7 mb 0.00 in0.0 mm 0.00 in0.0 mm 0.00 in0.0 mm
10:48 PM 52.2°F11.2°C 48.8°F9.3°C 88% 3.0 mph SW4.8 kmh SW 8.0 mph12.9 kmh 30.26 in1024.7 mb 0.00 in0.0 mm 0.00 in0.0 mm 0.00 in0.0 mm
10:49 PM 52.2°F11.2°C 48.8°F9.3°C 88% 3.0 mph SW4.8 kmh SW 8.0 mph12.9 kmh 30.26 in1024.7 mb 0.00 in0.0 mm 0.00 in0.0 mm 0.00 in0.0 mm
10:51 PM 52.2°F11.2°C 48.8°F9.3°C 88% 3.0 mph SSW4.8 kmh SSW 9.0 mph14.5 kmh 30.26 in1024.7 mb 0.00 in0.0 mm 0.00 in0.0 mm 0.00 in0.0 mm
10:52 PM 52.1°F11.2°C 48.7°F9.3°C 88% 3.0 mph SSW4.8 kmh SSW 9.0 mph14.5 kmh 30.26 in1024.7 mb 0.00 in0.0 mm 0.00 in0.0 mm 0.00 in0.0 mm
10:54 PM 52.1°F11.2°C 48.7°F9.3°C 88% 3.0 mph SSW4.8 kmh SSW 9.0 mph14.5 kmh 30.26 in1024.7 mb 0.00 in0.0 mm 0.00 in0.0 mm 0.00 in0.0 mm
10:55 PM 52.1°F11.2°C 48.7°F9.3°C 88% 3.0 mph SSW4.8 kmh SSW 9.0 mph14.5 kmh 30.26 in1024.7 mb 0.00 in0.0 mm 0.00 in0.0 mm 0.00 in0.0 mm
10:57 PM 52.1°F11.2°C 48.7°F9.3°C 88% 3.0 mph SSW4.8 kmh SSW 9.0 mph14.5 kmh 30.26 in1024.7 mb 0.00 in0.0 mm 0.00 in0.0 mm 0.00 in0.0 mm
10:58 PM 52.0°F11.1°C 48.6°F9.2°C 88% 3.0 mph SSW4.8 kmh SSW 9.0 mph14.5 kmh 30.26 in1024.7 mb 0.00 in0.0 mm 0.00 in0.0 mm 0.00 in0.0 mm
11:00 PM 52.0°F11.1°C 48.6°F9.2°C 88% 4.0 mph SSW6.4 kmh SSW 8.0 mph12.9 kmh 30.26 in1024.7 mb 0.00 in0.0 mm 0.00 in0.0 mm 0.00 in0.0 mm
11:01 PM 52.0°F11.1°C 48.6°F9.2°C 88% 3.0 mph SSW4.8 kmh SSW 7.0 mph11.3 kmh 30.26 in1024.7 mb 0.00 in0.0 mm 0.00 in0.0 mm 0.00 in0.0 mm
11:03 PM 52.0°F11.1°C 48.6°F9.2°C 88% 3.0 mph SSW4.8 kmh SSW 7.0 mph11.3 kmh 30.26 in1024.7 mb 0.00 in0.0 mm 0.00 in0.0 mm 0.00 in0.0 mm
11:04 PM 52.0°F11.1°C 48.6°F9.2°C 88% 3.0 mph SSW4.8 kmh SSW 7.0 mph11.3 kmh 30.26 in1024.7 mb 0.00 in0.0 mm 0.00 in0.0 mm 0.00 in0.0 mm
11:06 PM 52.0°F11.1°C 48.6°F9.2°C 88% 4.0 mph SSW6.4 kmh SSW 7.0 mph11.3 kmh 30.26 in1024.7 mb 0.00 in0.0 mm 0.00 in0.0 mm 0.00 in0.0 mm
11:07 PM 52.0°F11.1°C 48.6°F9.2°C 88% 4.0 mph SSW6.4 kmh SSW 7.0 mph11.3 kmh 30.26 in1024.7 mb 0.00 in0.0 mm 0.00 in0.0 mm 0.00 in0.0 mm
11:09 PM 51.9°F11.1°C 48.8°F9.3°C 89% 4.0 mph SW6.4 kmh SW 7.0 mph11.3 kmh 30.26 in1024.7 mb 0.00 in0.0 mm 0.00 in0.0 mm 0.00 in0.0 mm
11:10 PM 52.0°F11.1°C 48.9°F9.4°C 89% 4.0 mph SW6.4 kmh SW 7.0 mph11.3 kmh 30.27 in1025.1 mb 0.00 in0.0 mm 0.00 in0.0 mm 0.00 in0.0 mm
11:12 PM 52.0°F11.1°C 48.9°F9.4°C 89% 4.0 mph SSW6.4 kmh SSW 10.0 mph16.1 kmh 30.27 in1025.1 mb 0.00 in0.0 mm 0.00 in0.0 mm 0.00 in0.0 mm
11:13 PM 51.9°F11.1°C 48.5°F9.2°C 88% 4.0 mph SSW6.4 kmh SSW 10.0 mph16.1 kmh 30.26 in1024.7 mb 0.00 in0.0 mm 0.00 in0.0 mm 0.00 in0.0 mm
11:14 PM 51.9°F11.1°C 48.5°F9.2°C 88% 4.0 mph SSW6.4 kmh SSW 10.0 mph16.1 kmh 30.27 in1025.1 mb 0.00 in0.0 mm 0.00 in0.0 mm 0.00 in0.0 mm
11:16 PM 51.9°F11.1°C 48.8°F9.3°C 89% 4.0 mph SSW6.4 kmh SSW 10.0 mph16.1 kmh 30.26 in1024.7 mb 0.00 in0.0 mm 0.00 in0.0 mm 0.00 in0.0 mm
11:17 PM 51.9°F11.1°C 48.8°F9.3°C 89% 4.0 mph SSW6.4 kmh SSW 10.0 mph16.1 kmh 30.27 in1025.1 mb 0.00 in0.0 mm 0.00 in0.0 mm 0.00 in0.0 mm
11:19 PM 51.9°F11.1°C 48.8°F9.3°C 89% 4.0 mph SSW6.4 kmh SSW 10.0 mph16.1 kmh 30.26 in1024.7 mb 0.00 in0.0 mm 0.00 in0.0 mm 0.00 in0.0 mm
11:21 PM 51.9°F11.1°C 48.8°F9.3°C 89% 3.0 mph SW4.8 kmh SW 8.0 mph12.9 kmh 30.27 in1025.1 mb 0.00 in0.0 mm 0.00 in0.0 mm 0.00 in0.0 mm
11:23 PM 52.0°F11.1°C 48.9°F9.4°C 89% 3.0 mph SW4.8 kmh SW 8.0 mph12.9 kmh 30.27 in1025.1 mb 0.00 in0.0 mm 0.00 in0.0 mm 0.00 in0.0 mm
11:24 PM 51.9°F11.1°C 48.8°F9.3°C 89% 3.0 mph SW4.8 kmh SW 8.0 mph12.9 kmh 30.27 in1025.1 mb 0.00 in0.0 mm 0.00 in0.0 mm 0.00 in0.0 mm
11:25 PM 52.0°F11.1°C 48.9°F9.4°C 89% 3.0 mph SW4.8 kmh SW 8.0 mph12.9 kmh 30.27 in1025.1 mb 0.00 in0.0 mm 0.00 in0.0 mm 0.00 in0.0 mm
11:26 PM 52.0°F11.1°C 48.9°F9.4°C 89% 3.0 mph SW4.8 kmh SW 8.0 mph12.9 kmh 30.27 in1025.1 mb 0.00 in0.0 mm 0.00 in0.0 mm 0.00 in0.0 mm
11:28 PM 52.1°F11.2°C 49.0°F9.4°C 89% 3.0 mph SW4.8 kmh SW 8.0 mph12.9 kmh 30.27 in1025.1 mb 0.00 in0.0 mm 0.00 in0.0 mm 0.00 in0.0 mm
11:30 PM 52.1°F11.2°C 49.0°F9.4°C 89% 3.0 mph SW4.8 kmh SW 8.0 mph12.9 kmh 30.27 in1025.1 mb 0.00 in0.0 mm 0.00 in0.0 mm 0.00 in0.0 mm
11:32 PM 52.1°F11.2°C 49.0°F9.4°C 89% 3.0 mph SW4.8 kmh SW 8.0 mph12.9 kmh 30.27 in1025.1 mb 0.00 in0.0 mm 0.00 in0.0 mm 0.00 in0.0 mm
11:33 PM 52.2°F11.2°C 49.1°F9.5°C 89% 3.0 mph SW4.8 kmh SW 8.0 mph12.9 kmh 30.27 in1025.1 mb 0.00 in0.0 mm 0.00 in0.0 mm 0.00 in0.0 mm
11:34 PM 52.2°F11.2°C 49.1°F9.5°C 89% 4.0 mph SW6.4 kmh SW 10.0 mph16.1 kmh 30.27 in1025.1 mb 0.00 in0.0 mm 0.00 in0.0 mm 0.00 in0.0 mm
11:36 PM 52.5°F11.4°C 49.4°F9.7°C 89% 4.0 mph SW6.4 kmh SW 10.0 mph16.1 kmh 30.27 in1025.1 mb 0.00 in0.0 mm 0.00 in0.0 mm 0.00 in0.0 mm
11:37 PM 52.5°F11.4°C 49.4°F9.7°C 89% 4.0 mph SW6.4 kmh SW 10.0 mph16.1 kmh 30.27 in1025.1 mb 0.00 in0.0 mm 0.00 in0.0 mm 0.00 in0.0 mm
11:39 PM 52.7°F11.5°C 49.2°F9.6°C 88% 4.0 mph SW6.4 kmh SW 10.0 mph16.1 kmh 30.27 in1025.1 mb 0.00 in0.0 mm 0.00 in0.0 mm 0.00 in0.0 mm
11:40 PM 52.8°F11.6°C 49.3°F9.6°C 88% 4.0 mph SW6.4 kmh SW 10.0 mph16.1 kmh 30.27 in1025.1 mb 0.00 in0.0 mm 0.00 in0.0 mm 0.00 in0.0 mm
11:42 PM 52.9°F11.6°C 49.4°F9.7°C 88% 4.0 mph SW6.4 kmh SW 10.0 mph16.1 kmh 30.27 in1025.1 mb 0.00 in0.0 mm 0.00 in0.0 mm 0.00 in0.0 mm
11:43 PM 52.9°F11.6°C 49.4°F9.7°C 88% 4.0 mph SW6.4 kmh SW 10.0 mph16.1 kmh 30.27 in1025.1 mb 0.00 in0.0 mm 0.00 in0.0 mm 0.00 in0.0 mm
11:45 PM 52.9°F11.6°C 49.1°F9.5°C 87% 4.0 mph SW6.4 kmh SW 10.0 mph16.1 kmh 30.27 in1025.1 mb 0.00 in0.0 mm 0.00 in0.0 mm 0.00 in0.0 mm
11:46 PM 52.8°F11.6°C 49.0°F9.4°C 87% 4.0 mph SW6.4 kmh SW 10.0 mph16.1 kmh 30.27 in1025.1 mb 0.00 in0.0 mm 0.00 in0.0 mm 0.00 in0.0 mm
11:48 PM 52.8°F11.6°C 49.0°F9.4°C 87% 4.0 mph SW6.4 kmh SW 10.0 mph16.1 kmh 30.27 in1025.1 mb 0.00 in0.0 mm 0.00 in0.0 mm 0.00 in0.0 mm
11:49 PM 52.8°F11.6°C 49.0°F9.4°C 87% 3.0 mph SW4.8 kmh SW 10.0 mph16.1 kmh 30.27 in1025.1 mb 0.00 in0.0 mm 0.00 in0.0 mm 0.00 in0.0 mm
11:51 PM 52.8°F11.6°C 49.0°F9.4°C 87% 3.0 mph SW4.8 kmh SW 10.0 mph16.1 kmh 30.27 in1025.1 mb 0.00 in0.0 mm 0.00 in0.0 mm 0.00 in0.0 mm
11:52 PM 52.8°F11.6°C 49.3°F9.6°C 88% 3.0 mph SW4.8 kmh SW 10.0 mph16.1 kmh 30.27 in1025.1 mb 0.00 in0.0 mm 0.00 in0.0 mm 0.00 in0.0 mm
11:54 PM 52.8°F11.6°C 49.3°F9.6°C 88% 3.0 mph SW4.8 kmh SW 10.0 mph16.1 kmh 30.27 in1025.1 mb 0.00 in0.0 mm 0.00 in0.0 mm 0.00 in0.0 mm
11:55 PM 52.7°F11.5°C 49.2°F9.6°C 88% 3.0 mph SW4.8 kmh SW 10.0 mph16.1 kmh 30.27 in1025.1 mb 0.00 in0.0 mm 0.00 in0.0 mm 0.00 in0.0 mm
11:57 PM 52.8°F11.6°C 49.3°F9.6°C 88% 3.0 mph SW4.8 kmh SW 9.0 mph14.5 kmh 30.27 in1025.1 mb 0.00 in0.0 mm 0.00 in0.0 mm 0.00 in0.0 mm
11:58 PM 52.8°F11.6°C 49.3°F9.6°C 88% 2.0 mph SW3.2 kmh SW 9.0 mph14.5 kmh 30.28 in1025.4 mb 0.00 in0.0 mm 0.00 in0.0 mm 0.00 in0.0 mm